<?xml version="1.0" encoding="UTF-8" standalone="no" ?>
<gpx xmlns="http://www.topografix.com/GPX/1/1" creator="MapSource 6.16.3" version="1.1" xmlns:xsi="http://www.w3.org/2001/XMLSchema-instance" xsi:schemaLocation="http://www.topografix.com/GPX/1/1 http://www.topografix.com/GPX/1/1/gpx.xsd">

  <metadata>
    <link href="http://www.garmin.com">
      <text>Garmin International</text>
    </link>
    <time>2021-09-19T14:44:18Z</time>
    <bounds maxlat="43.593273153528571" maxlon="12.25377188064158" minlat="43.463783226907253" minlon="12.140145041048527"/>
  </metadata>

  <wpt lat="43.591033928096294" lon="12.185883494094014">
    <ele>736</ele>
    <time>2013-04-26T13:35:10Z</time>
    <name>Fonte</name>
    <sym>Waypoint</sym>
    <extensions>
      <gpxx:WaypointExtension xmlns:gpxx="http://www.garmin.com/xmlschemas/GpxExtensions/v3">
        <gpxx:DisplayMode>SymbolAndName</gpxx:DisplayMode>
      </gpxx:WaypointExtension>
    </extensions>
  </wpt>

  <wpt lat="43.463783226907253" lon="12.236589398235083">
    <ele>283.10000000000002</ele>
    <time>2012-09-05T22:14:27Z</time>
    <name>Fonte1</name>
    <cmt>22-AGO-12 16:28:48</cmt>
    <desc>22-AGO-12 16:28:48</desc>
    <sym>Drinking Water</sym>
    <extensions>
      <gpxx:WaypointExtension xmlns:gpxx="http://www.garmin.com/xmlschemas/GpxExtensions/v3">
        <gpxx:DisplayMode>SymbolAndName</gpxx:DisplayMode>
      </gpxx:WaypointExtension>
    </extensions>
  </wpt>

  <wpt lat="43.536132797598839" lon="12.201033616438508">
    <ele>351</ele>
    <time>2012-09-05T22:14:27Z</time>
    <name>Fonte2</name>
    <cmt>22-AGO-12 12:16:48</cmt>
    <desc>22-AGO-12 12:16:48</desc>
    <sym>Drinking Water</sym>
    <extensions>
      <gpxx:WaypointExtension xmlns:gpxx="http://www.garmin.com/xmlschemas/GpxExtensions/v3">
        <gpxx:DisplayMode>SymbolAndName</gpxx:DisplayMode>
      </gpxx:WaypointExtension>
    </extensions>
  </wpt>

  <wpt lat="43.520515467971563" lon="12.217130642384291">
    <ele>329.60000000000002</ele>
    <time>2012-09-05T22:14:27Z</time>
    <name>Fonte3</name>
    <cmt>22-AGO-12 14:05:07</cmt>
    <desc>22-AGO-12 14:05:07</desc>
    <sym>Drinking Water</sym>
    <extensions>
      <gpxx:WaypointExtension xmlns:gpxx="http://www.garmin.com/xmlschemas/GpxExtensions/v3">
        <gpxx:DisplayMode>SymbolAndName</gpxx:DisplayMode>
      </gpxx:WaypointExtension>
    </extensions>
  </wpt>

  <wpt lat="43.482691710814834" lon="12.253655288368464">
    <time>2019-03-14T15:39:02Z</time>
    <name>Rifugio Bonavita</name>
    <cmt>land</cmt>
    <desc>land</desc>
    <sym>Lodging</sym>
    <extensions>
      <gpxx:WaypointExtension xmlns:gpxx="http://www.garmin.com/xmlschemas/GpxExtensions/v3">
        <gpxx:DisplayMode>SymbolAndName</gpxx:DisplayMode>
      </gpxx:WaypointExtension>
    </extensions>
  </wpt>

  <trk>
    <name>Sansepolcro-Città di</name>
    <trkseg>
      <trkpt lat="43.56932831928134" lon="12.140145041048527"/>
      <trkpt lat="43.56982234865427" lon="12.140507725998759"/>
      <trkpt lat="43.57021763920784" lon="12.140788519755006"/>
      <trkpt lat="43.570774616673589" lon="12.14130325242877"/>
      <trkpt lat="43.571142917498946" lon="12.141490420326591"/>
      <trkpt lat="43.571439301595092" lon="12.1417127083987"/>
      <trkpt lat="43.571726800873876" lon="12.14189987629652"/>
      <trkpt lat="43.572175987064838" lon="12.142285946756601"/>
      <trkpt lat="43.572382600978017" lon="12.142426343634725"/>
      <trkpt lat="43.572445465251803" lon="12.142800679430366"/>
      <trkpt lat="43.572652079164982" lon="12.143502663820982"/>
      <trkpt lat="43.572822734713554" lon="12.144017396494746"/>
      <trkpt lat="43.572939494624734" lon="12.144368346780539"/>
      <trkpt lat="43.573056338354945" lon="12.144625671207905"/>
      <trkpt lat="43.573191035538912" lon="12.144801188260317"/>
      <trkpt lat="43.573238225653768" lon="12.145133530721068">
        <ele>336.12</ele>
        <time>2018-01-29T08:42:01Z</time>
      </trkpt>
      <trkpt lat="43.573290947824717" lon="12.145418347790837">
        <ele>337.56</ele>
        <time>2018-01-29T08:42:04Z</time>
      </trkpt>
      <trkpt lat="43.573300838470459" lon="12.145750522613525">
        <ele>339.48000000000002</ele>
        <time>2018-01-29T08:42:09Z</time>
      </trkpt>
      <trkpt lat="43.573300838470459" lon="12.145750522613525">
        <ele>339.95999999999998</ele>
        <time>2018-01-29T08:42:12Z</time>
      </trkpt>
      <trkpt lat="43.573615327477455" lon="12.146579492837191">
        <ele>342.85000000000002</ele>
        <time>2018-01-29T08:42:22Z</time>
      </trkpt>
      <trkpt lat="43.573640640825033" lon="12.146680494770408">
        <ele>343.81</ele>
        <time>2018-01-29T08:42:26Z</time>
      </trkpt>
      <trkpt lat="43.573657656088471" lon="12.146748639643192">
        <ele>344.29000000000002</ele>
        <time>2018-01-29T08:42:28Z</time>
      </trkpt>
      <trkpt lat="43.573665618896484" lon="12.146780490875244">
        <ele>344.29000000000002</ele>
        <time>2018-01-29T08:42:34Z</time>
      </trkpt>
      <trkpt lat="43.573867958039045" lon="12.147043431177735">
        <ele>344.29000000000002</ele>
        <time>2018-01-29T08:42:39Z</time>
      </trkpt>
      <trkpt lat="43.573916153982282" lon="12.147166058421135">
        <ele>345.25</ele>
        <time>2018-01-29T08:42:43Z</time>
      </trkpt>
      <trkpt lat="43.573958063498139" lon="12.147350460290909">
        <ele>345.73000000000002</ele>
        <time>2018-01-29T08:42:46Z</time>
      </trkpt>
      <trkpt lat="43.574009947478771" lon="12.147576520219445">
        <ele>347.64999999999998</ele>
        <time>2018-01-29T08:42:49Z</time>
      </trkpt>
      <trkpt lat="43.574042301625013" lon="12.147641144692898">
        <ele>347.64999999999998</ele>
        <time>2018-01-29T08:42:50Z</time>
      </trkpt>
      <trkpt lat="43.574264002963901" lon="12.147970972582698">
        <ele>349.57999999999998</ele>
        <time>2018-01-29T08:42:55Z</time>
      </trkpt>
      <trkpt lat="43.574588298797607" lon="12.148303985595703">
        <ele>351.98000000000002</ele>
        <time>2018-01-29T08:43:03Z</time>
      </trkpt>
      <trkpt lat="43.574588298797607" lon="12.148303985595703">
        <ele>352.45999999999998</ele>
        <time>2018-01-29T08:43:05Z</time>
      </trkpt>
      <trkpt lat="43.574842270463705" lon="12.148296274244785">
        <ele>353.89999999999998</ele>
        <time>2018-01-29T08:43:09Z</time>
      </trkpt>
      <trkpt lat="43.57496615499258" lon="12.148325443267822">
        <ele>354.86000000000001</ele>
        <time>2018-01-29T08:43:13Z</time>
      </trkpt>
      <trkpt lat="43.574946792796254" lon="12.148553850129247">
        <ele>355.82999999999998</ele>
        <time>2018-01-29T08:43:19Z</time>
      </trkpt>
      <trkpt lat="43.574925502762198" lon="12.148600621148944">
        <ele>357.75</ele>
        <time>2018-01-29T08:43:20Z</time>
      </trkpt>
      <trkpt lat="43.574832295998931" lon="12.148884097114205">
        <ele>360.14999999999998</ele>
        <time>2018-01-29T08:43:24Z</time>
      </trkpt>
      <trkpt lat="43.574815448373556" lon="12.149018375203013">
        <ele>362.06999999999999</ele>
        <time>2018-01-29T08:43:26Z</time>
      </trkpt>
      <trkpt lat="43.574799187481403" lon="12.14921317063272">
        <ele>363.51999999999998</ele>
        <time>2018-01-29T08:43:28Z</time>
      </trkpt>
      <trkpt lat="43.574792314320803" lon="12.14939296245575">
        <ele>364.95999999999998</ele>
        <time>2018-01-29T08:43:30Z</time>
      </trkpt>
      <trkpt lat="43.574785860255361" lon="12.149560684338212">
        <ele>368.80000000000001</ele>
        <time>2018-01-29T08:43:32Z</time>
      </trkpt>
      <trkpt lat="43.574782758951187" lon="12.149640396237373">
        <ele>368.80000000000001</ele>
        <time>2018-01-29T08:43:33Z</time>
      </trkpt>
      <trkpt lat="43.574761804193258" lon="12.149755731225014">
        <ele>370.24000000000001</ele>
        <time>2018-01-29T08:43:35Z</time>
      </trkpt>
      <trkpt lat="43.574728108942509" lon="12.149868216365576">
        <ele>371.20999999999998</ele>
        <time>2018-01-29T08:43:36Z</time>
      </trkpt>
      <trkpt lat="43.574614617973566" lon="12.15007902123034">
        <ele>374.56999999999999</ele>
        <time>2018-01-29T08:43:40Z</time>
      </trkpt>
      <trkpt lat="43.57454982586205" lon="12.150301057845354">
        <ele>376.49000000000001</ele>
        <time>2018-01-29T08:43:43Z</time>
      </trkpt>
      <trkpt lat="43.574512777850032" lon="12.150467522442341">
        <ele>378.42000000000002</ele>
        <time>2018-01-29T08:43:45Z</time>
      </trkpt>
      <trkpt lat="43.574469527229667" lon="12.150580007582903">
        <ele>381.30000000000001</ele>
        <time>2018-01-29T08:43:48Z</time>
      </trkpt>
      <trkpt lat="43.574440609663725" lon="12.150637842714787">
        <ele>382.74000000000001</ele>
        <time>2018-01-29T08:43:50Z</time>
      </trkpt>
      <trkpt lat="43.5743348300457" lon="12.150780502706766">
        <ele>385.14999999999998</ele>
        <time>2018-01-29T08:43:55Z</time>
      </trkpt>
      <trkpt lat="43.574279677122831" lon="12.150854095816612">
        <ele>385.63</ele>
        <time>2018-01-29T08:43:57Z</time>
      </trkpt>
      <trkpt lat="43.574270289391279" lon="12.150866584852338">
        <ele>386.58999999999997</ele>
        <time>2018-01-29T08:44:12Z</time>
      </trkpt>
      <trkpt lat="43.574270289391279" lon="12.150866584852338">
        <ele>386.11000000000001</ele>
        <time>2018-01-29T08:44:17Z</time>
      </trkpt>
      <trkpt lat="43.573999051004648" lon="12.15122826397419">
        <ele>383.22000000000003</ele>
        <time>2018-01-29T08:45:21Z</time>
      </trkpt>
      <trkpt lat="43.573889080435038" lon="12.151748361065984">
        <ele>382.25999999999999</ele>
        <time>2018-01-29T08:45:31Z</time>
      </trkpt>
      <trkpt lat="43.573927050456405" lon="12.151973750442266">
        <ele>382.25999999999999</ele>
        <time>2018-01-29T08:45:34Z</time>
      </trkpt>
      <trkpt lat="43.574007516726851" lon="12.152247419580817">
        <ele>380.81999999999999</ele>
        <time>2018-01-29T08:45:39Z</time>
      </trkpt>
      <trkpt lat="43.574051856994629" lon="12.152509689331055">
        <ele>378.89999999999998</ele>
        <time>2018-01-29T08:45:44Z</time>
      </trkpt>
      <trkpt lat="43.574051856994629" lon="12.152733318507671">
        <ele>376.97000000000003</ele>
        <time>2018-01-29T08:45:48Z</time>
      </trkpt>
      <trkpt lat="43.574008941650391" lon="12.153124082833529">
        <ele>374.56999999999999</ele>
        <time>2018-01-29T08:45:54Z</time>
      </trkpt>
      <trkpt lat="43.574008941650391" lon="12.153234807774425">
        <ele>373.61000000000001</ele>
        <time>2018-01-29T08:45:56Z</time>
      </trkpt>
      <trkpt lat="43.574154954403639" lon="12.153571676462889">
        <ele>372.64999999999998</ele>
        <time>2018-01-29T08:46:00Z</time>
      </trkpt>
      <trkpt lat="43.574385205283761" lon="12.153850458562374">
        <ele>371.69</ele>
        <time>2018-01-29T08:46:05Z</time>
      </trkpt>
      <trkpt lat="43.574482351541519" lon="12.154060425236821">
        <ele>371.69</ele>
        <time>2018-01-29T08:46:09Z</time>
      </trkpt>
      <trkpt lat="43.574560387060046" lon="12.154411794617772">
        <ele>371.69</ele>
        <time>2018-01-29T08:46:13Z</time>
      </trkpt>
      <trkpt lat="43.574696844443679" lon="12.154763415455818">
        <ele>372.64999999999998</ele>
        <time>2018-01-29T08:46:18Z</time>
      </trkpt>
      <trkpt lat="43.574846377596259" lon="12.155051082372665">
        <ele>375.05000000000001</ele>
        <time>2018-01-29T08:46:23Z</time>
      </trkpt>
      <trkpt lat="43.574896417558193" lon="12.155147306621075">
        <ele>377.94</ele>
        <time>2018-01-29T08:46:25Z</time>
      </trkpt>
      <trkpt lat="43.574946289882064" lon="12.155243279412389">
        <ele>379.86000000000001</ele>
        <time>2018-01-29T08:46:28Z</time>
      </trkpt>
      <trkpt lat="43.57498325407505" lon="12.155304048210382">
        <ele>381.30000000000001</ele>
        <time>2018-01-29T08:46:30Z</time>
      </trkpt>
      <trkpt lat="43.575055254623294" lon="12.155418125912547">
        <ele>383.22000000000003</ele>
        <time>2018-01-29T08:46:33Z</time>
      </trkpt>
      <trkpt lat="43.575128009542823" lon="12.155533377081156">
        <ele>385.14999999999998</ele>
        <time>2018-01-29T08:46:35Z</time>
      </trkpt>
      <trkpt lat="43.575284834951162" lon="12.155738230794668">
        <ele>389.94999999999999</ele>
        <time>2018-01-29T08:46:39Z</time>
      </trkpt>
      <trkpt lat="43.575338060036302" lon="12.155791372060776">
        <ele>389.94999999999999</ele>
        <time>2018-01-29T08:46:40Z</time>
      </trkpt>
      <trkpt lat="43.575438894331455" lon="12.155897319316864">
        <ele>392.36000000000001</ele>
        <time>2018-01-29T08:46:42Z</time>
      </trkpt>
      <trkpt lat="43.575531514361501" lon="12.156003182753921">
        <ele>394.27999999999997</ele>
        <time>2018-01-29T08:46:44Z</time>
      </trkpt>
      <trkpt lat="43.57556764036417" lon="12.15608767233789">
        <ele>396.19999999999999</ele>
        <time>2018-01-29T08:46:45Z</time>
      </trkpt>
      <trkpt lat="43.575600748881698" lon="12.156229494139552">
        <ele>397.63999999999999</ele>
        <time>2018-01-29T08:46:47Z</time>
      </trkpt>
      <trkpt lat="43.575633689761162" lon="12.156370645388961">
        <ele>399.07999999999998</ele>
        <time>2018-01-29T08:46:49Z</time>
      </trkpt>
      <trkpt lat="43.575668390840292" lon="12.156519424170256">
        <ele>400.52999999999997</ele>
        <time>2018-01-29T08:46:51Z</time>
      </trkpt>
      <trkpt lat="43.575697392225266" lon="12.156643560156226">
        <ele>401.97000000000003</ele>
        <time>2018-01-29T08:46:53Z</time>
      </trkpt>
      <trkpt lat="43.575781211256981" lon="12.156807594001293">
        <ele>403.88999999999999</ele>
        <time>2018-01-29T08:46:56Z</time>
      </trkpt>
      <trkpt lat="43.5761324968189" lon="12.157084196805954">
        <ele>407.25999999999999</ele>
        <time>2018-01-29T08:47:01Z</time>
      </trkpt>
      <trkpt lat="43.576216399669647" lon="12.157187461853027">
        <ele>409.18000000000001</ele>
        <time>2018-01-29T08:47:03Z</time>
      </trkpt>
      <trkpt lat="43.576281191781163" lon="12.15726725757122">
        <ele>412.06</ele>
        <time>2018-01-29T08:47:05Z</time>
      </trkpt>
      <trkpt lat="43.576319748535752" lon="12.157314782962203">
        <ele>413.01999999999998</ele>
        <time>2018-01-29T08:47:07Z</time>
      </trkpt>
      <trkpt lat="43.576371297240257" lon="12.15737815015018">
        <ele>415.91000000000003</ele>
        <time>2018-01-29T08:47:10Z</time>
      </trkpt>
      <trkpt lat="43.576420247554779" lon="12.157438332214952">
        <ele>417.82999999999998</ele>
        <time>2018-01-29T08:47:12Z</time>
      </trkpt>
      <trkpt lat="43.576485626399517" lon="12.15751888230443">
        <ele>418.79000000000002</ele>
        <time>2018-01-29T08:47:14Z</time>
      </trkpt>
      <trkpt lat="43.576535666361451" lon="12.157580405473709">
        <ele>421.68000000000001</ele>
        <time>2018-01-29T08:47:17Z</time>
      </trkpt>
      <trkpt lat="43.576601631939411" lon="12.157661626115441">
        <ele>423.12</ele>
        <time>2018-01-29T08:47:22Z</time>
      </trkpt>
      <trkpt lat="43.577092308551073" lon="12.157815853133798">
        <ele>425.51999999999998</ele>
        <time>2018-01-29T08:47:34Z</time>
      </trkpt>
      <trkpt lat="43.577550882473588" lon="12.157661207020283">
        <ele>428.88999999999999</ele>
        <time>2018-01-29T08:47:46Z</time>
      </trkpt>
      <trkpt lat="43.577656745910645" lon="12.157595157623291">
        <ele>431.76999999999998</ele>
        <time>2018-01-29T08:47:55Z</time>
      </trkpt>
      <trkpt lat="43.577656745910645" lon="12.157595157623291">
        <ele>433.20999999999998</ele>
        <time>2018-01-29T08:48:45Z</time>
      </trkpt>
      <trkpt lat="43.577656745910645" lon="12.157595157623291">
        <ele>433.69</ele>
        <time>2018-01-29T08:49:05Z</time>
      </trkpt>
      <trkpt lat="43.577656745910645" lon="12.157595157623291">
        <ele>434.17000000000002</ele>
        <time>2018-01-29T08:49:54Z</time>
      </trkpt>
      <trkpt lat="43.577656745910645" lon="12.157595157623291">
        <ele>435.61000000000001</ele>
        <time>2018-01-29T08:50:08Z</time>
      </trkpt>
      <trkpt lat="43.577940054237843" lon="12.157771261408925">
        <ele>437.54000000000002</ele>
        <time>2018-01-29T08:50:22Z</time>
      </trkpt>
      <trkpt lat="43.577940054237843" lon="12.157771261408925">
        <ele>438.5</ele>
        <time>2018-01-29T08:50:30Z</time>
      </trkpt>
      <trkpt lat="43.578057317063212" lon="12.157888440415263">
        <ele>439.94</ele>
        <time>2018-01-29T08:50:33Z</time>
      </trkpt>
      <trkpt lat="43.578057317063212" lon="12.157888440415263">
        <ele>439.94</ele>
        <time>2018-01-29T08:50:36Z</time>
      </trkpt>
      <trkpt lat="43.578127305954695" lon="12.157958429306746">
        <ele>442.33999999999997</ele>
        <time>2018-01-29T08:50:51Z</time>
      </trkpt>
      <trkpt lat="43.578202407807112" lon="12.158033531159163">
        <ele>443.79000000000002</ele>
        <time>2018-01-29T08:51:01Z</time>
      </trkpt>
      <trkpt lat="43.578288406133652" lon="12.158119613304734">
        <ele>445.23000000000002</ele>
        <time>2018-01-29T08:51:11Z</time>
      </trkpt>
      <trkpt lat="43.578334590420127" lon="12.158188512548804">
        <ele>447.14999999999998</ele>
        <time>2018-01-29T08:51:20Z</time>
      </trkpt>
      <trkpt lat="43.578334590420127" lon="12.158188512548804">
        <ele>448.58999999999997</ele>
        <time>2018-01-29T08:51:28Z</time>
      </trkpt>
      <trkpt lat="43.578334590420127" lon="12.158188512548804">
        <ele>451</ele>
        <time>2018-01-29T08:51:40Z</time>
      </trkpt>
      <trkpt lat="43.578334590420127" lon="12.158188512548804">
        <ele>453.39999999999998</ele>
        <time>2018-01-29T08:51:58Z</time>
      </trkpt>
      <trkpt lat="43.578334590420127" lon="12.158188512548804">
        <ele>456.75999999999999</ele>
        <time>2018-01-29T08:52:17Z</time>
      </trkpt>
      <trkpt lat="43.578334590420127" lon="12.158188512548804">
        <ele>458.69</ele>
        <time>2018-01-29T08:52:40Z</time>
      </trkpt>
      <trkpt lat="43.578334590420127" lon="12.158188512548804">
        <ele>462.05000000000001</ele>
        <time>2018-01-29T08:52:57Z</time>
      </trkpt>
      <trkpt lat="43.578334590420127" lon="12.158188512548804">
        <ele>463.97000000000003</ele>
        <time>2018-01-29T08:53:18Z</time>
      </trkpt>
      <trkpt lat="43.578645559027791" lon="12.159366337582469">
        <ele>465.42000000000002</ele>
        <time>2018-01-29T08:53:26Z</time>
      </trkpt>
      <trkpt lat="43.578645559027791" lon="12.159366337582469">
        <ele>465.42000000000002</ele>
        <time>2018-01-29T08:53:26Z</time>
      </trkpt>
      <trkpt lat="43.578645559027791" lon="12.159366337582469">
        <ele>465.42000000000002</ele>
        <time>2018-01-29T08:53:30Z</time>
      </trkpt>
      <trkpt lat="43.578645559027791" lon="12.159366337582469">
        <ele>468.77999999999997</ele>
        <time>2018-01-29T08:53:47Z</time>
      </trkpt>
      <trkpt lat="43.578645559027791" lon="12.159366337582469">
        <ele>471.66000000000003</ele>
        <time>2018-01-29T08:54:03Z</time>
      </trkpt>
      <trkpt lat="43.578645559027791" lon="12.159366337582469">
        <ele>471.66000000000003</ele>
        <time>2018-01-29T08:54:22Z</time>
      </trkpt>
      <trkpt lat="43.578645559027791" lon="12.159366337582469">
        <ele>471.18000000000001</ele>
        <time>2018-01-29T08:54:24Z</time>
      </trkpt>
      <trkpt lat="43.578645559027791" lon="12.159366337582469">
        <ele>471.66000000000003</ele>
        <time>2018-01-29T08:54:27Z</time>
      </trkpt>
      <trkpt lat="43.578771119937301" lon="12.159359296783805"/>
      <trkpt lat="43.578883437439799" lon="12.159312441945076"/>
      <trkpt lat="43.578950827941298" lon="12.15923641808331"/>
      <trkpt lat="43.579004723578691" lon="12.159417718648911"/>
      <trkpt lat="43.579101115465164" lon="12.159633468836546">
        <ele>469.25999999999999</ele>
        <time>2018-01-29T08:54:47Z</time>
      </trkpt>
      <trkpt lat="43.579101115465164" lon="12.159633468836546">
        <ele>468.30000000000001</ele>
        <time>2018-01-29T08:54:53Z</time>
      </trkpt>
      <trkpt lat="43.579101115465164" lon="12.159633468836546">
        <ele>467.33999999999997</ele>
        <time>2018-01-29T08:55:09Z</time>
      </trkpt>
      <trkpt lat="43.579101115465164" lon="12.159633468836546">
        <ele>463.97000000000003</ele>
        <time>2018-01-29T08:55:23Z</time>
      </trkpt>
      <trkpt lat="43.579101115465164" lon="12.159633468836546">
        <ele>460.61000000000001</ele>
        <time>2018-01-29T08:55:37Z</time>
      </trkpt>
      <trkpt lat="43.579101115465164" lon="12.159633468836546">
        <ele>457.24000000000001</ele>
        <time>2018-01-29T08:55:54Z</time>
      </trkpt>
      <trkpt lat="43.579804776236415" lon="12.160510551184416">
        <ele>453.88</ele>
        <time>2018-01-29T08:56:16Z</time>
      </trkpt>
      <trkpt lat="43.579804776236415" lon="12.160510551184416">
        <ele>453.39999999999998</ele>
        <time>2018-01-29T08:56:24Z</time>
      </trkpt>
      <trkpt lat="43.579834531992674" lon="12.160764187574387">
        <ele>449.06999999999999</ele>
        <time>2018-01-29T08:56:40Z</time>
      </trkpt>
      <trkpt lat="43.579834531992674" lon="12.160764187574387">
        <ele>449.06999999999999</ele>
        <time>2018-01-29T08:56:41Z</time>
      </trkpt>
      <trkpt lat="43.579845428466797" lon="12.1608567237854">
        <ele>448.58999999999997</ele>
        <time>2018-01-29T08:56:44Z</time>
      </trkpt>
      <trkpt lat="43.579845428466797" lon="12.1608567237854">
        <ele>447.63</ele>
        <time>2018-01-29T08:57:04Z</time>
      </trkpt>
      <trkpt lat="43.579845428466797" lon="12.1608567237854">
        <ele>447.63</ele>
        <time>2018-01-29T08:58:47Z</time>
      </trkpt>
      <trkpt lat="43.579845428466797" lon="12.1608567237854">
        <ele>448.11000000000001</ele>
        <time>2018-01-29T08:59:02Z</time>
      </trkpt>
      <trkpt lat="43.579845428466797" lon="12.1608567237854">
        <ele>448.11000000000001</ele>
        <time>2018-01-29T08:59:09Z</time>
      </trkpt>
      <trkpt lat="43.579883147031069" lon="12.160881953313947">
        <ele>447.63</ele>
        <time>2018-01-29T08:59:24Z</time>
      </trkpt>
      <trkpt lat="43.579883147031069" lon="12.160881953313947">
        <ele>449.55000000000001</ele>
        <time>2018-01-29T08:59:45Z</time>
      </trkpt>
      <trkpt lat="43.579883147031069" lon="12.160881953313947">
        <ele>449.55000000000001</ele>
        <time>2018-01-29T09:00:00Z</time>
      </trkpt>
      <trkpt lat="43.579883147031069" lon="12.160881953313947">
        <ele>446.67000000000002</ele>
        <time>2018-01-29T09:00:18Z</time>
      </trkpt>
      <trkpt lat="43.579883147031069" lon="12.160881953313947">
        <ele>443.79000000000002</ele>
        <time>2018-01-29T09:00:28Z</time>
      </trkpt>
      <trkpt lat="43.579883147031069" lon="12.160881953313947">
        <ele>440.42000000000002</ele>
        <time>2018-01-29T09:00:40Z</time>
      </trkpt>
      <trkpt lat="43.579883147031069" lon="12.160881953313947">
        <ele>437.54000000000002</ele>
        <time>2018-01-29T09:00:53Z</time>
      </trkpt>
      <trkpt lat="43.580658053979278" lon="12.161474134773016">
        <ele>434.64999999999998</ele>
        <time>2018-01-29T09:01:11Z</time>
      </trkpt>
      <trkpt lat="43.580658053979278" lon="12.161474134773016">
        <ele>431.29000000000002</ele>
        <time>2018-01-29T09:01:24Z</time>
      </trkpt>
      <trkpt lat="43.580658053979278" lon="12.161474134773016">
        <ele>427.92000000000002</ele>
        <time>2018-01-29T09:01:37Z</time>
      </trkpt>
      <trkpt lat="43.580658053979278" lon="12.161474134773016">
        <ele>426.48000000000002</ele>
        <time>2018-01-29T09:01:44Z</time>
      </trkpt>
      <trkpt lat="43.580658053979278" lon="12.161474134773016">
        <ele>426</ele>
        <time>2018-01-29T09:01:48Z</time>
      </trkpt>
      <trkpt lat="43.581059547141194" lon="12.161515122279525">
        <ele>425.51999999999998</ele>
        <time>2018-01-29T09:01:57Z</time>
      </trkpt>
      <trkpt lat="43.581059547141194" lon="12.161515122279525">
        <ele>424.56</ele>
        <time>2018-01-29T09:02:09Z</time>
      </trkpt>
      <trkpt lat="43.581059547141194" lon="12.161515122279525">
        <ele>426.48000000000002</ele>
        <time>2018-01-29T09:02:21Z</time>
      </trkpt>
      <trkpt lat="43.581059547141194" lon="12.161515122279525">
        <ele>427.92000000000002</ele>
        <time>2018-01-29T09:02:28Z</time>
      </trkpt>
      <trkpt lat="43.581059547141194" lon="12.161515122279525">
        <ele>427.92000000000002</ele>
        <time>2018-01-29T09:02:41Z</time>
      </trkpt>
      <trkpt lat="43.581391805782914" lon="12.161850901320577">
        <ele>428.88999999999999</ele>
        <time>2018-01-29T09:03:04Z</time>
      </trkpt>
      <trkpt lat="43.581391805782914" lon="12.161850901320577">
        <ele>430.81</ele>
        <time>2018-01-29T09:03:17Z</time>
      </trkpt>
      <trkpt lat="43.581391805782914" lon="12.161850901320577">
        <ele>433.20999999999998</ele>
        <time>2018-01-29T09:03:33Z</time>
      </trkpt>
      <trkpt lat="43.581391805782914" lon="12.161850901320577">
        <ele>433.20999999999998</ele>
        <time>2018-01-29T09:03:41Z</time>
      </trkpt>
      <trkpt lat="43.581454753875732" lon="12.162680625915527">
        <ele>425.04000000000002</ele>
        <time>2018-01-29T09:04:12Z</time>
      </trkpt>
      <trkpt lat="43.581507727503777" lon="12.162901069968939">
        <ele>425.04000000000002</ele>
        <time>2018-01-29T09:04:26Z</time>
      </trkpt>
      <trkpt lat="43.581507727503777" lon="12.162901069968939">
        <ele>424.56</ele>
        <time>2018-01-29T09:04:28Z</time>
      </trkpt>
      <trkpt lat="43.581518037244678" lon="12.162944236770272">
        <ele>425.04000000000002</ele>
        <time>2018-01-29T09:04:32Z</time>
      </trkpt>
      <trkpt lat="43.58156606554985" lon="12.16314448043704">
        <ele>426</ele>
        <time>2018-01-29T09:04:44Z</time>
      </trkpt>
      <trkpt lat="43.58156606554985" lon="12.16314448043704">
        <ele>426</ele>
        <time>2018-01-29T09:04:46Z</time>
      </trkpt>
      <trkpt lat="43.58156606554985" lon="12.16314448043704">
        <ele>426</ele>
        <time>2018-01-29T09:05:00Z</time>
      </trkpt>
      <trkpt lat="43.58156606554985" lon="12.16314448043704">
        <ele>426.48000000000002</ele>
        <time>2018-01-29T09:05:05Z</time>
      </trkpt>
      <trkpt lat="43.581662457436323" lon="12.163246739655733">
        <ele>428.88999999999999</ele>
        <time>2018-01-29T09:05:18Z</time>
      </trkpt>
      <trkpt lat="43.581662457436323" lon="12.163246739655733">
        <ele>431.29000000000002</ele>
        <time>2018-01-29T09:05:35Z</time>
      </trkpt>
      <trkpt lat="43.581662457436323" lon="12.163246739655733">
        <ele>431.76999999999998</ele>
        <time>2018-01-29T09:05:49Z</time>
      </trkpt>
      <trkpt lat="43.581662457436323" lon="12.163246739655733">
        <ele>432.25</ele>
        <time>2018-01-29T09:05:57Z</time>
      </trkpt>
      <trkpt lat="43.581662457436323" lon="12.163246739655733">
        <ele>434.17000000000002</ele>
        <time>2018-01-29T09:06:13Z</time>
      </trkpt>
      <trkpt lat="43.581662457436323" lon="12.163246739655733">
        <ele>434.17000000000002</ele>
        <time>2018-01-29T09:06:37Z</time>
      </trkpt>
      <trkpt lat="43.581662457436323" lon="12.163246739655733">
        <ele>434.64999999999998</ele>
        <time>2018-01-29T09:06:44Z</time>
      </trkpt>
      <trkpt lat="43.581662457436323" lon="12.163246739655733">
        <ele>434.64999999999998</ele>
        <time>2018-01-29T09:07:14Z</time>
      </trkpt>
      <trkpt lat="43.581737140193582" lon="12.163267526775599"/>
      <trkpt lat="43.581912321969867" lon="12.163127129897475"/>
      <trkpt lat="43.581912321969867" lon="12.162910709157586"/>
      <trkpt lat="43.58187192119658" lon="12.162729324772954"/>
      <trkpt lat="43.581860605627298" lon="12.162672327831388">
        <ele>443.31</ele>
        <time>2018-01-29T09:47:31Z</time>
      </trkpt>
      <trkpt lat="43.581862952560186" lon="12.16268808580935">
        <ele>441.86000000000001</ele>
        <time>2018-01-29T09:48:07Z</time>
      </trkpt>
      <trkpt lat="43.58212798833847" lon="12.16261038556695">
        <ele>437.54000000000002</ele>
        <time>2018-01-29T09:48:16Z</time>
      </trkpt>
      <trkpt lat="43.582184482365847" lon="12.162625808268785">
        <ele>436.10000000000002</ele>
        <time>2018-01-29T09:48:18Z</time>
      </trkpt>
      <trkpt lat="43.582260003313422" lon="12.162648858502507">
        <ele>434.64999999999998</ele>
        <time>2018-01-29T09:48:20Z</time>
      </trkpt>
      <trkpt lat="43.582407692447305" lon="12.162710046395659">
        <ele>432.73000000000002</ele>
        <time>2018-01-29T09:48:24Z</time>
      </trkpt>
      <trkpt lat="43.582499390468001" lon="12.162801995873451">
        <ele>431.29000000000002</ele>
        <time>2018-01-29T09:48:28Z</time>
      </trkpt>
      <trkpt lat="43.582546077668667" lon="12.162857400253415">
        <ele>429.85000000000002</ele>
        <time>2018-01-29T09:48:30Z</time>
      </trkpt>
      <trkpt lat="43.58265227638185" lon="12.163023948669434">
        <ele>426</ele>
        <time>2018-01-29T09:48:35Z</time>
      </trkpt>
      <trkpt lat="43.582677002996206" lon="12.163097793236375">
        <ele>424.56</ele>
        <time>2018-01-29T09:48:37Z</time>
      </trkpt>
      <trkpt lat="43.582689072936773" lon="12.1631776727736">
        <ele>423.12</ele>
        <time>2018-01-29T09:48:39Z</time>
      </trkpt>
      <trkpt lat="43.58269426971674" lon="12.163256462663412">
        <ele>421.68000000000001</ele>
        <time>2018-01-29T09:48:41Z</time>
      </trkpt>
      <trkpt lat="43.582633165642619" lon="12.16346844099462">
        <ele>417.82999999999998</ele>
        <time>2018-01-29T09:48:46Z</time>
      </trkpt>
      <trkpt lat="43.582609025761485" lon="12.163508925586939">
        <ele>417.82999999999998</ele>
        <time>2018-01-29T09:48:47Z</time>
      </trkpt>
      <trkpt lat="43.582567870616913" lon="12.163557708263397">
        <ele>416.87</ele>
        <time>2018-01-29T09:48:48Z</time>
      </trkpt>
      <trkpt lat="43.582449853420258" lon="12.163663655519485">
        <ele>415.43000000000001</ele>
        <time>2018-01-29T09:48:51Z</time>
      </trkpt>
      <trkpt lat="43.582374667748809" lon="12.163701290264726">
        <ele>411.57999999999998</ele>
        <time>2018-01-29T09:48:53Z</time>
      </trkpt>
      <trkpt lat="43.582346001639962" lon="12.163726519793272">
        <ele>411.57999999999998</ele>
        <time>2018-01-29T09:48:54Z</time>
      </trkpt>
      <trkpt lat="43.582303589209914" lon="12.16379432938993">
        <ele>410.13999999999999</ele>
        <time>2018-01-29T09:48:56Z</time>
      </trkpt>
      <trkpt lat="43.582248687744141" lon="12.163882255554199">
        <ele>407.74000000000001</ele>
        <time>2018-01-29T09:48:59Z</time>
      </trkpt>
      <trkpt lat="43.582280371338129" lon="12.16396146453917">
        <ele>406.76999999999998</ele>
        <time>2018-01-29T09:49:01Z</time>
      </trkpt>
      <trkpt lat="43.582327729091048" lon="12.164079900830984">
        <ele>404.85000000000002</ele>
        <time>2018-01-29T09:49:03Z</time>
      </trkpt>
      <trkpt lat="43.582368129864335" lon="12.164122648537159">
        <ele>402.93000000000001</ele>
        <time>2018-01-29T09:49:05Z</time>
      </trkpt>
      <trkpt lat="43.582445830106735" lon="12.164182579144835">
        <ele>400.52999999999997</ele>
        <time>2018-01-29T09:49:07Z</time>
      </trkpt>
      <trkpt lat="43.582554962486029" lon="12.164266398176551">
        <ele>398.12</ele>
        <time>2018-01-29T09:49:10Z</time>
      </trkpt>
      <trkpt lat="43.582586646080017" lon="12.164290873333812">
        <ele>397.16000000000003</ele>
        <time>2018-01-29T09:49:11Z</time>
      </trkpt>
      <trkpt lat="43.582600057125092" lon="12.164445267990232">
        <ele>393.80000000000001</ele>
        <time>2018-01-29T09:49:14Z</time>
      </trkpt>
      <trkpt lat="43.582558315247297" lon="12.164650876075029">
        <ele>392.36000000000001</ele>
        <time>2018-01-29T09:49:17Z</time>
      </trkpt>
      <trkpt lat="43.582507353276014" lon="12.164813987910748">
        <ele>390.43000000000001</ele>
        <time>2018-01-29T09:49:19Z</time>
      </trkpt>
      <trkpt lat="43.582426300272346" lon="12.165035186335444">
        <ele>387.06999999999999</ele>
        <time>2018-01-29T09:49:22Z</time>
      </trkpt>
      <trkpt lat="43.582364860922098" lon="12.16516837477684">
        <ele>385.63</ele>
        <time>2018-01-29T09:49:24Z</time>
      </trkpt>
      <trkpt lat="43.58233124949038" lon="12.165250265970826">
        <ele>384.18000000000001</ele>
        <time>2018-01-29T09:49:26Z</time>
      </trkpt>
      <trkpt lat="43.582320101559162" lon="12.165306257084012">
        <ele>382.25999999999999</ele>
        <time>2018-01-29T09:49:28Z</time>
      </trkpt>
      <trkpt lat="43.582405764609575" lon="12.165377084165812">
        <ele>382.74000000000001</ele>
        <time>2018-01-29T09:49:35Z</time>
      </trkpt>
      <trkpt lat="43.582607684656978" lon="12.165454868227243">
        <ele>384.66000000000003</ele>
        <time>2018-01-29T09:49:38Z</time>
      </trkpt>
      <trkpt lat="43.58299870043993" lon="12.165605658665299">
        <ele>386.11000000000001</ele>
        <time>2018-01-29T09:49:42Z</time>
      </trkpt>
      <trkpt lat="43.583632288500667" lon="12.165849907323718">
        <ele>384.66000000000003</ele>
        <time>2018-01-29T09:49:47Z</time>
      </trkpt>
      <trkpt lat="43.584430497139692" lon="12.166158193722367">
        <ele>388.50999999999999</ele>
        <time>2018-01-29T09:49:53Z</time>
      </trkpt>
      <trkpt lat="43.58456184156239" lon="12.166208988055587">
        <ele>388.50999999999999</ele>
        <time>2018-01-29T09:49:54Z</time>
      </trkpt>
      <trkpt lat="43.584815813228488" lon="12.166296662762761">
        <ele>389.47000000000003</ele>
        <time>2018-01-29T09:49:56Z</time>
      </trkpt>
      <trkpt lat="43.585077412426472" lon="12.166333040222526">
        <ele>390.43000000000001</ele>
        <time>2018-01-29T09:49:58Z</time>
      </trkpt>
      <trkpt lat="43.585989782586694" lon="12.166301943361759">
        <ele>393.80000000000001</ele>
        <time>2018-01-29T09:50:04Z</time>
      </trkpt>
      <trkpt lat="43.586303936317563" lon="12.166278138756752">
        <ele>395.24000000000001</ele>
        <time>2018-01-29T09:50:06Z</time>
      </trkpt>
      <trkpt lat="43.586625633761287" lon="12.166253747418523">
        <ele>396.68000000000001</ele>
        <time>2018-01-29T09:50:08Z</time>
      </trkpt>
      <trkpt lat="43.586930818855762" lon="12.166230613365769">
        <ele>398.12</ele>
        <time>2018-01-29T09:50:10Z</time>
      </trkpt>
      <trkpt lat="43.587319739162922" lon="12.166178226470947">
        <ele>400.05000000000001</ele>
        <time>2018-01-29T09:50:13Z</time>
      </trkpt>
      <trkpt lat="43.587542781606317" lon="12.166182836517692">
        <ele>400.52999999999997</ele>
        <time>2018-01-29T09:50:15Z</time>
      </trkpt>
      <trkpt lat="43.587965313345194" lon="12.166384588927031">
        <ele>401.49000000000001</ele>
        <time>2018-01-29T09:50:19Z</time>
      </trkpt>
      <trkpt lat="43.589098127558827" lon="12.167499382048845">
        <ele>402.93000000000001</ele>
        <time>2018-01-29T09:50:31Z</time>
      </trkpt>
      <trkpt lat="43.590146955102682" lon="12.168593974784017">
        <ele>404.37</ele>
        <time>2018-01-29T09:50:43Z</time>
      </trkpt>
      <trkpt lat="43.590359687805176" lon="12.168731689453125">
        <ele>406.29000000000002</ele>
        <time>2018-01-29T09:50:52Z</time>
      </trkpt>
      <trkpt lat="43.590359687805176" lon="12.168731689453125">
        <ele>405.81</ele>
        <time>2018-01-29T09:51:22Z</time>
      </trkpt>
      <trkpt lat="43.590091718360782" lon="12.169110300019383">
        <ele>422.72000000000003</ele>
      </trkpt>
      <trkpt lat="43.589801788330078" lon="12.169199902564287">
        <ele>424.58999999999997</ele>
      </trkpt>
      <trkpt lat="43.58956147916615" lon="12.169670127332211">
        <ele>434.57999999999998</ele>
      </trkpt>
      <trkpt lat="43.589530969038606" lon="12.170419720932841">
        <ele>442.75999999999999</ele>
      </trkpt>
      <trkpt lat="43.589691147208214" lon="12.171239890158176">
        <ele>444.94</ele>
      </trkpt>
      <trkpt lat="43.58985903672874" lon="12.171730063855648">
        <ele>440.23000000000002</ele>
      </trkpt>
      <trkpt lat="43.589881919324398" lon="12.171950340270996">
        <ele>440.20999999999998</ele>
      </trkpt>
      <trkpt lat="43.590011587366462" lon="12.172109596431255">
        <ele>444.13</ele>
      </trkpt>
      <trkpt lat="43.590091718360782" lon="12.173390351235867">
        <ele>461.94</ele>
      </trkpt>
      <trkpt lat="43.59029003418982" lon="12.174650151282549">
        <ele>462.00999999999999</ele>
      </trkpt>
      <trkpt lat="43.590091718360782" lon="12.175390273332596">
        <ele>469.43000000000001</ele>
      </trkpt>
      <trkpt lat="43.590099345892668" lon="12.175689674913883">
        <ele>473.48000000000002</ele>
      </trkpt>
      <trkpt lat="43.590358765795827" lon="12.176239946857095">
        <ele>475.20999999999998</ele>
      </trkpt>
      <trkpt lat="43.590271007269621" lon="12.176850317046046">
        <ele>492.69</ele>
      </trkpt>
      <trkpt lat="43.590400675311685" lon="12.17722037807107">
        <ele>496.60000000000002</ele>
      </trkpt>
      <trkpt lat="43.590431185439229" lon="12.177490191534162">
        <ele>502.75999999999999</ele>
      </trkpt>
      <trkpt lat="43.590339655056596" lon="12.178159737959504">
        <ele>526.76999999999998</ele>
      </trkpt>
      <trkpt lat="43.590400675311685" lon="12.178359981626272">
        <ele>530.28999999999996</ele>
      </trkpt>
      <trkpt lat="43.590759253129363" lon="12.17873951420188">
        <ele>526.88999999999999</ele>
      </trkpt>
      <trkpt lat="43.590889004990458" lon="12.17873951420188">
        <ele>521.13</ele>
      </trkpt>
      <trkpt lat="43.591480264440179" lon="12.18041991814971">
        <ele>535.24000000000001</ele>
      </trkpt>
      <trkpt lat="43.591621415689588" lon="12.181159956380725">
        <ele>547.53999999999996</ele>
      </trkpt>
      <trkpt lat="43.591999020427465" lon="12.181799914687872">
        <ele>561.5</ele>
      </trkpt>
      <trkpt lat="43.592079151421785" lon="12.182419756427407">
        <ele>585.96000000000004</ele>
      </trkpt>
      <trkpt lat="43.59209063462913" lon="12.183150323107839">
        <ele>618.29999999999995</ele>
      </trkpt>
      <trkpt lat="43.591911345720291" lon="12.18346020206809">
        <ele>634.72000000000003</ele>
      </trkpt>
      <trkpt lat="43.591510774567723" lon="12.183409659191966">
        <ele>637.74000000000001</ele>
      </trkpt>
      <trkpt lat="43.591320002451539" lon="12.18362046405673">
        <ele>646.96000000000004</ele>
      </trkpt>
      <trkpt lat="43.591480264440179" lon="12.184619922190905">
        <ele>683.73000000000002</ele>
      </trkpt>
      <trkpt lat="43.591438271105289" lon="12.184829721227288">
        <ele>691.35000000000002</ele>
      </trkpt>
      <trkpt lat="43.591209445148706" lon="12.18529986217618">
        <ele>710.60000000000002</ele>
      </trkpt>
      <trkpt lat="43.591579422354698" lon="12.185520138591528">
        <ele>713.22000000000003</ele>
      </trkpt>
      <trkpt lat="43.591414969414473" lon="12.185816438868642"/>
      <trkpt lat="43.591617560014129" lon="12.186285993084311">
        <ele>734.97000000000003</ele>
      </trkpt>
      <trkpt lat="43.591709174215794" lon="12.186760911718011">
        <ele>743.36000000000001</ele>
      </trkpt>
      <trkpt lat="43.591739684343338" lon="12.187109012156725">
        <ele>748.88</ele>
      </trkpt>
      <trkpt lat="43.59185409732163" lon="12.187785180285573">
        <ele>754.01999999999998</ele>
      </trkpt>
      <trkpt lat="43.591915117576718" lon="12.187993973493576">
        <ele>755.40999999999997</ele>
      </trkpt>
      <trkpt lat="43.592140171676874" lon="12.188431760296226">
        <ele>751.74000000000001</ele>
      </trkpt>
      <trkpt lat="43.591888463124633" lon="12.188465120270848">
        <ele>756.16999999999996</ele>
      </trkpt>
      <trkpt lat="43.591644298285246" lon="12.188324891030788">
        <ele>760.70000000000005</ele>
      </trkpt>
      <trkpt lat="43.591495519503951" lon="12.188261020928621">
        <ele>763.96000000000004</ele>
      </trkpt>
      <trkpt lat="43.591354368254542" lon="12.188130347058177">
        <ele>767.40999999999997</ele>
      </trkpt>
      <trkpt lat="43.59117885120213" lon="12.188093215227127">
        <ele>771.25999999999999</ele>
      </trkpt>
      <trkpt lat="43.591014901176095" lon="12.188351629301906">
        <ele>774.65999999999997</ele>
      </trkpt>
      <trkpt lat="43.590950025245547" lon="12.188589088618755">
        <ele>776.10000000000002</ele>
      </trkpt>
      <trkpt lat="43.590827900916338" lon="12.189043052494526">
        <ele>779.38</ele>
      </trkpt>
      <trkpt lat="43.590686833485961" lon="12.189329126849771">
        <ele>784.37</ele>
      </trkpt>
      <trkpt lat="43.590564709156752" lon="12.189440689980984">
        <ele>788.40999999999997</ele>
      </trkpt>
      <trkpt lat="43.590427413582802" lon="12.189398780465126">
        <ele>792.89999999999998</ele>
      </trkpt>
      <trkpt lat="43.590301517397165" lon="12.189240446314216">
        <ele>797.19000000000005</ele>
      </trkpt>
      <trkpt lat="43.590133711695671" lon="12.189110778272152">
        <ele>803.01999999999998</ele>
      </trkpt>
      <trkpt lat="43.590072607621551" lon="12.189473127946258">
        <ele>804.13999999999999</ele>
      </trkpt>
      <trkpt lat="43.590095490217209" lon="12.190017700195313">
        <ele>802.35000000000002</ele>
      </trkpt>
      <trkpt lat="43.589965822175145" lon="12.190023399889469">
        <ele>805.60000000000002</ele>
      </trkpt>
      <trkpt lat="43.589687375351787" lon="12.189742103219032">
        <ele>813.34000000000003</ele>
      </trkpt>
      <trkpt lat="43.589576734229922" lon="12.18960857950151">
        <ele>816.44000000000005</ele>
      </trkpt>
      <trkpt lat="43.58948134817183" lon="12.189416885375977">
        <ele>819.35000000000002</ele>
      </trkpt>
      <trkpt lat="43.589462321251631" lon="12.19000437296927">
        <ele>818.26999999999998</ele>
      </trkpt>
      <trkpt lat="43.589244810864329" lon="12.190480213612318">
        <ele>821.5</ele>
      </trkpt>
      <trkpt lat="43.589042639359832" lon="12.190763438120484">
        <ele>824.49000000000001</ele>
      </trkpt>
      <trkpt lat="43.588977847248316" lon="12.191214552149177">
        <ele>828.5</ele>
      </trkpt>
      <trkpt lat="43.589279176667333" lon="12.192090041935444">
        <ele>830.44000000000005</ele>
      </trkpt>
      <trkpt lat="43.589260065928102" lon="12.192621203139424">
        <ele>838.54999999999995</ele>
      </trkpt>
      <trkpt lat="43.589248666539788" lon="12.192918760702014">
        <ele>842.88</ele>
      </trkpt>
      <trkpt lat="43.589729284867644" lon="12.192696556448936">
        <ele>835.16999999999996</ele>
      </trkpt>
      <trkpt lat="43.589939083904028" lon="12.192460019141436">
        <ele>828.67999999999995</ele>
      </trkpt>
      <trkpt lat="43.590122228488326" lon="12.192300762981176">
        <ele>824.97000000000003</ele>
      </trkpt>
      <trkpt lat="43.590389275923371" lon="12.192406626418233">
        <ele>828.19000000000005</ele>
      </trkpt>
      <trkpt lat="43.590480806306005" lon="12.192658418789506">
        <ele>834.13999999999999</ele>
      </trkpt>
      <trkpt lat="43.590595219284296" lon="12.192843407392502">
        <ele>838.90999999999997</ele>
      </trkpt>
      <trkpt lat="43.590652467682958" lon="12.193112382665277">
        <ele>845.24000000000001</ele>
      </trkpt>
      <trkpt lat="43.59070586040616" lon="12.193292593583465">
        <ele>849.62</ele>
      </trkpt>
      <trkpt lat="43.590702088549733" lon="12.193451849743724">
        <ele>853.15999999999997</ele>
      </trkpt>
      <trkpt lat="43.590579964220524" lon="12.193335508927703">
        <ele>849.70000000000005</ele>
      </trkpt>
      <trkpt lat="43.590351138263941" lon="12.193217240273952">
        <ele>845.54999999999995</ele>
      </trkpt>
      <trkpt lat="43.590042097494006" lon="12.19332218170166">
        <ele>845.60000000000002</ele>
      </trkpt>
      <trkpt lat="43.589893318712711" lon="12.193784695118666">
        <ele>854.5</ele>
      </trkpt>
      <trkpt lat="43.58952334150672" lon="12.194085102528334">
        <ele>853.14999999999998</ele>
      </trkpt>
      <trkpt lat="43.589233411476016" lon="12.194459941238165">
        <ele>849.46000000000004</ele>
      </trkpt>
      <trkpt lat="43.588882461190224" lon="12.194792786613107">
        <ele>847.41999999999996</ele>
      </trkpt>
      <trkpt lat="43.58897021971643" lon="12.195018762722611">
        <ele>844.22000000000003</ele>
      </trkpt>
      <trkpt lat="43.589069377630949" lon="12.195112220942974">
        <ele>842.19000000000005</ele>
      </trkpt>
      <trkpt lat="43.58926392160356" lon="12.195246666669846">
        <ele>838.80999999999995</ele>
      </trkpt>
      <trkpt lat="43.589546224102378" lon="12.195430733263493">
        <ele>836.90999999999997</ele>
      </trkpt>
      <trkpt lat="43.589721657335758" lon="12.195808421820402">
        <ele>830.45000000000005</ele>
      </trkpt>
      <trkpt lat="43.590209987014532" lon="12.196510322391987">
        <ele>828.23000000000002</ele>
      </trkpt>
      <trkpt lat="43.590217614546418" lon="12.19678021967411">
        <ele>824.75</ele>
      </trkpt>
      <trkpt lat="43.590274779126048" lon="12.197625199332833">
        <ele>815.41999999999996</ele>
      </trkpt>
      <trkpt lat="43.59019473195076" lon="12.197996098548174">
        <ele>810.11000000000001</ele>
      </trkpt>
      <trkpt lat="43.590351138263941" lon="12.198859183117747">
        <ele>807.24000000000001</ele>
      </trkpt>
      <trkpt lat="43.590229013934731" lon="12.199229244142771">
        <ele>802.82000000000005</ele>
      </trkpt>
      <trkpt lat="43.590072607621551" lon="12.199319852516055">
        <ele>799.11000000000001</ele>
      </trkpt>
      <trkpt lat="43.589881919324398" lon="12.199461925774813">
        <ele>794.59000000000003</ele>
      </trkpt>
      <trkpt lat="43.58973691239953" lon="12.199536357074976">
        <ele>790.63999999999999</ele>
      </trkpt>
      <trkpt lat="43.589668264612556" lon="12.199785215780139">
        <ele>786.80999999999995</ele>
      </trkpt>
      <trkpt lat="43.589454609900713" lon="12.199699385091662">
        <ele>780.07000000000005</ele>
      </trkpt>
      <trkpt lat="43.589446982368827" lon="12.199914967641234">
        <ele>774.33000000000004</ele>
      </trkpt>
      <trkpt lat="43.589530969038606" lon="12.200084701180458">
        <ele>772.23000000000002</ele>
      </trkpt>
      <trkpt lat="43.589588133618236" lon="12.200284944847226">
        <ele>768.23000000000002</ele>
      </trkpt>
      <trkpt lat="43.589702630415559" lon="12.200616868212819">
        <ele>762.64999999999998</ele>
      </trkpt>
      <trkpt lat="43.589717885479331" lon="12.200675960630178">
        <ele>761.48000000000002</ele>
      </trkpt>
      <trkpt lat="43.589889546856284" lon="12.200939152389765">
        <ele>758.22000000000003</ele>
      </trkpt>
      <trkpt lat="43.590267151594162" lon="12.201005956158042">
        <ele>763.03999999999996</ele>
      </trkpt>
      <trkpt lat="43.59049228951335" lon="12.200946779921651">
        <ele>768.57000000000005</ele>
      </trkpt>
      <trkpt lat="43.590549454092979" lon="12.200931524857879">
        <ele>769.04999999999995</ele>
      </trkpt>
      <trkpt lat="43.590885149315" lon="12.201040238142014">
        <ele>766.36000000000001</ele>
      </trkpt>
      <trkpt lat="43.59117885120213" lon="12.200883831828833">
        <ele>768.75999999999999</ele>
      </trkpt>
      <trkpt lat="43.591384878382087" lon="12.20061301253736">
        <ele>775.19000000000005</ele>
      </trkpt>
      <trkpt lat="43.591510774567723" lon="12.200270611792803">
        <ele>782.49000000000001</ele>
      </trkpt>
      <trkpt lat="43.591621415689588" lon="12.200003648176789">
        <ele>786.63</ele>
      </trkpt>
      <trkpt lat="43.591834986582398" lon="12.200144799426198">
        <ele>779.24000000000001</ele>
      </trkpt>
      <trkpt lat="43.591899862512946" lon="12.200420396402478">
        <ele>773.53999999999996</ele>
      </trkpt>
      <trkpt lat="43.591953255236149" lon="12.200621562078595">
        <ele>769.92999999999995</ele>
      </trkpt>
      <trkpt lat="43.592033386230469" lon="12.200819039717317">
        <ele>768.02999999999997</ele>
      </trkpt>
      <trkpt lat="43.592422474175692" lon="12.200975446030498">
        <ele>770.64999999999998</ele>
      </trkpt>
      <trkpt lat="43.592647528275847" lon="12.200818033888936">
        <ele>774.36000000000001</ele>
      </trkpt>
      <trkpt lat="43.592857327312231" lon="12.200773274526">
        <ele>779.39999999999998</ele>
      </trkpt>
      <trkpt lat="43.592784907668829" lon="12.201495207846165">
        <ele>776.38999999999999</ele>
      </trkpt>
      <trkpt lat="43.592544598504901" lon="12.201854707673192">
        <ele>772.45000000000005</ele>
      </trkpt>
      <trkpt lat="43.59272388741374" lon="12.202259050682187">
        <ele>777.60000000000002</ele>
      </trkpt>
      <trkpt lat="43.593017589300871" lon="12.202354436740279">
        <ele>781.52999999999997</ele>
      </trkpt>
      <trkpt lat="43.593273153528571" lon="12.202605223283172">
        <ele>783.88999999999999</ele>
      </trkpt>
      <trkpt lat="43.59260561875999" lon="12.203351045027375">
        <ele>788.04999999999995</ele>
      </trkpt>
      <trkpt lat="43.591545140370727" lon="12.204595590010285">
        <ele>795.67999999999995</ele>
      </trkpt>
      <trkpt lat="43.591354368254542" lon="12.204812010750175">
        <ele>797.12</ele>
      </trkpt>
      <trkpt lat="43.591114059090614" lon="12.205308889970183">
        <ele>802.98000000000002</ele>
      </trkpt>
      <trkpt lat="43.590709716081619" lon="12.205797219648957">
        <ele>808.55999999999995</ele>
      </trkpt>
      <trkpt lat="43.589962050318718" lon="12.206650748848915">
        <ele>816.20000000000005</ele>
      </trkpt>
      <trkpt lat="43.589244810864329" lon="12.206983594223857">
        <ele>813.71000000000004</ele>
      </trkpt>
      <trkpt lat="43.588836695998907" lon="12.206919640302658">
        <ele>809.63999999999999</ele>
      </trkpt>
      <trkpt lat="43.588447608053684" lon="12.20731258392334">
        <ele>812.70000000000005</ele>
      </trkpt>
      <trkpt lat="43.587673204019666" lon="12.207327838987112">
        <ele>809.75</ele>
      </trkpt>
      <trkpt lat="43.587280260398984" lon="12.207777025178075">
        <ele>813.78999999999996</ele>
      </trkpt>
      <trkpt lat="43.586784387007356" lon="12.207625396549702">
        <ele>805.97000000000003</ele>
      </trkpt>
      <trkpt lat="43.5865593329072" lon="12.207451807335019">
        <ele>797.75</ele>
      </trkpt>
      <trkpt lat="43.586277030408382" lon="12.207467062398791">
        <ele>791.49000000000001</ele>
      </trkpt>
      <trkpt lat="43.585746791213751" lon="12.208190923556685">
        <ele>795.96000000000004</ele>
      </trkpt>
      <trkpt lat="43.585285199806094" lon="12.208580933511257">
        <ele>794.14999999999998</ele>
      </trkpt>
      <trkpt lat="43.585086800158024" lon="12.208890896290541">
        <ele>797.60000000000002</ele>
      </trkpt>
      <trkpt lat="43.585002897307277" lon="12.209239918738604">
        <ele>801.11000000000001</ele>
      </trkpt>
      <trkpt lat="43.584449775516987" lon="12.209730176255107">
        <ele>806.88</ele>
      </trkpt>
      <trkpt lat="43.584278114140034" lon="12.209897981956601">
        <ele>810.57000000000005</ele>
      </trkpt>
      <trkpt lat="43.584094969555736" lon="12.210141140967607">
        <ele>814.04999999999995</ele>
      </trkpt>
      <trkpt lat="43.583900425583124" lon="12.210536012426019">
        <ele>818.36000000000001</ele>
      </trkpt>
      <trkpt lat="43.583778385072947" lon="12.21081068739295">
        <ele>821.92999999999995</ele>
      </trkpt>
      <trkpt lat="43.583541847765446" lon="12.21110824495554">
        <ele>826.71000000000004</ele>
      </trkpt>
      <trkpt lat="43.583244290202856" lon="12.210627542808652">
        <ele>821.40999999999997</ele>
      </trkpt>
      <trkpt lat="43.582946816459298" lon="12.210586555302143">
        <ele>821.70000000000005</ele>
      </trkpt>
      <trkpt lat="43.582317335531116" lon="12.211127271875739">
        <ele>826.78999999999996</ele>
      </trkpt>
      <trkpt lat="43.581745186820626" lon="12.211134899407625">
        <ele>823.17999999999995</ele>
      </trkpt>
      <trkpt lat="43.580539701506495" lon="12.211497332900763">
        <ele>819.95000000000005</ele>
      </trkpt>
      <trkpt lat="43.580188751220703" lon="12.211608896031976">
        <ele>819.80999999999995</ele>
      </trkpt>
      <trkpt lat="43.579059625044465" lon="12.211232213303447">
        <ele>817.29999999999995</ele>
      </trkpt>
      <trkpt lat="43.578521758317947" lon="12.210777243599296">
        <ele>814.24000000000001</ele>
      </trkpt>
      <trkpt lat="43.578258482739329" lon="12.210500724613667">
        <ele>810.60000000000002</ele>
      </trkpt>
      <trkpt lat="43.577320128679276" lon="12.210283298045397">
        <ele>807.09000000000003</ele>
      </trkpt>
      <trkpt lat="43.576904302462935" lon="12.210304252803326">
        <ele>807.75999999999999</ele>
      </trkpt>
      <trkpt lat="43.576427455991507" lon="12.209917092695832">
        <ele>800.75</ele>
      </trkpt>
      <trkpt lat="43.576034512370825" lon="12.209692960605025">
        <ele>797.15999999999997</ele>
      </trkpt>
      <trkpt lat="43.575645424425602" lon="12.209383919835091">
        <ele>793.86000000000001</ele>
      </trkpt>
      <trkpt lat="43.574245478957891" lon="12.207984896376729">
        <ele>798.64999999999998</ele>
      </trkpt>
      <trkpt lat="43.574001314118505" lon="12.20776654779911">
        <ele>802.15999999999997</ele>
      </trkpt>
      <trkpt lat="43.572498355060816" lon="12.206351263448596">
        <ele>798.04999999999995</ele>
      </trkpt>
      <trkpt lat="43.568710321560502" lon="12.207780880853534">
        <ele>790.17999999999995</ele>
      </trkpt>
      <trkpt lat="43.568420391529799" lon="12.207941981032491">
        <ele>785.25</ele>
      </trkpt>
      <trkpt lat="43.568183938041329" lon="12.208009706810117">
        <ele>779.07000000000005</ele>
      </trkpt>
      <trkpt lat="43.567962655797601" lon="12.208063099533319">
        <ele>772.45000000000005</ele>
      </trkpt>
      <trkpt lat="43.567657470703125" lon="12.208152785897255">
        <ele>765.83000000000004</ele>
      </trkpt>
      <trkpt lat="43.567504920065403" lon="12.208170890808105">
        <ele>762.58000000000004</ele>
      </trkpt>
      <trkpt lat="43.567241644486785" lon="12.208125125616789">
        <ele>757.16999999999996</ele>
      </trkpt>
      <trkpt lat="43.566909804940224" lon="12.208400722593069">
        <ele>753.46000000000004</ele>
      </trkpt>
      <trkpt lat="43.566459696739912" lon="12.2084198333323">
        <ele>750.41999999999996</ele>
      </trkpt>
      <trkpt lat="43.566173538565636" lon="12.208232916891575">
        <ele>752.54999999999995</ele>
      </trkpt>
      <trkpt lat="43.565715802833438" lon="12.207473767921329">
        <ele>754.12</ele>
      </trkpt>
      <trkpt lat="43.564678207039833" lon="12.206970183178782">
        <ele>752.96000000000004</ele>
      </trkpt>
      <trkpt lat="43.564422642812133" lon="12.206755606457591">
        <ele>750.32000000000005</ele>
      </trkpt>
      <trkpt lat="43.564319629222155" lon="12.206568690016866">
        <ele>746.99000000000001</ele>
      </trkpt>
      <trkpt lat="43.564300518482924" lon="12.206268282607198">
        <ele>742.02999999999997</ele>
      </trkpt>
      <trkpt lat="43.564331028610468" lon="12.205818174406886">
        <ele>732.88999999999999</ele>
      </trkpt>
      <trkpt lat="43.564353911206126" lon="12.205496812239289">
        <ele>726.28999999999996</ele>
      </trkpt>
      <trkpt lat="43.564056437462568" lon="12.20525935292244">
        <ele>722.62</ele>
      </trkpt>
      <trkpt lat="43.563640611246228" lon="12.205012338235974">
        <ele>719.59000000000003</ele>
      </trkpt>
      <trkpt lat="43.563186647370458" lon="12.204740513116121">
        <ele>714.48000000000002</ele>
      </trkpt>
      <trkpt lat="43.562896717339754" lon="12.204474471509457">
        <ele>711.28999999999996</ele>
      </trkpt>
      <trkpt lat="43.562610642984509" lon="12.204404817894101">
        <ele>708.33000000000004</ele>
      </trkpt>
      <trkpt lat="43.562366478145123" lon="12.204232234507799">
        <ele>705.22000000000003</ele>
      </trkpt>
      <trkpt lat="43.561939252540469" lon="12.203960409387946">
        <ele>698.66999999999996</ele>
      </trkpt>
      <trkpt lat="43.561695087701082" lon="12.20377542078495">
        <ele>695.11000000000001</ele>
      </trkpt>
      <trkpt lat="43.561222096905112" lon="12.203517928719521">
        <ele>690.33000000000004</ele>
      </trkpt>
      <trkpt lat="43.560897801071405" lon="12.203352889046073">
        <ele>688.49000000000001</ele>
      </trkpt>
      <trkpt lat="43.56037518940866" lon="12.203187011182308">
        <ele>686.12</ele>
      </trkpt>
      <trkpt lat="43.559944108128548" lon="12.203190783038735">
        <ele>682.75999999999999</ele>
      </trkpt>
      <trkpt lat="43.559612268581986" lon="12.203230848535895">
        <ele>679.72000000000003</ele>
      </trkpt>
      <trkpt lat="43.559108767658472" lon="12.203354816883802">
        <ele>671.29999999999995</ele>
      </trkpt>
      <trkpt lat="43.558872230350971" lon="12.203378705307841">
        <ele>666.17999999999995</ele>
      </trkpt>
      <trkpt lat="43.558490769937634" lon="12.204162580892444">
        <ele>657.46000000000004</ele>
      </trkpt>
      <trkpt lat="43.558055916801095" lon="12.204993227496743">
        <ele>657.00999999999999</ele>
      </trkpt>
      <trkpt lat="43.557849889621139" lon="12.205114345997572">
        <ele>653.49000000000001</ele>
      </trkpt>
      <trkpt lat="43.557586697861552" lon="12.205182071775198">
        <ele>647.67999999999995</ele>
      </trkpt>
      <trkpt lat="43.557369271293283" lon="12.205223059281707">
        <ele>643.15999999999997</ele>
      </trkpt>
      <trkpt lat="43.557228120043874" lon="12.205346105620265">
        <ele>641.38</ele>
      </trkpt>
      <trkpt lat="43.556282054632902" lon="12.206833809614182">
        <ele>644.72000000000003</ele>
      </trkpt>
      <trkpt lat="43.556274427101016" lon="12.206845292821527">
        <ele>644.80999999999995</ele>
      </trkpt>
      <trkpt lat="43.556030262261629" lon="12.207012176513672">
        <ele>640.35000000000002</ele>
      </trkpt>
      <trkpt lat="43.555755587294698" lon="12.206985438242555">
        <ele>635.84000000000003</ele>
      </trkpt>
      <trkpt lat="43.555522905662656" lon="12.207072274759412">
        <ele>630.29999999999995</ele>
      </trkpt>
      <trkpt lat="43.55537798255682" lon="12.207098929211497">
        <ele>627.29999999999995</ele>
      </trkpt>
      <trkpt lat="43.554904907941818" lon="12.207083674147725">
        <ele>619</ele>
      </trkpt>
      <trkpt lat="43.554672226309776" lon="12.20703698694706">
        <ele>615.29999999999995</ele>
      </trkpt>
      <trkpt lat="43.554428061470389" lon="12.20697688870132">
        <ele>611.83000000000004</ele>
      </trkpt>
      <trkpt lat="43.554046601057053" lon="12.206906313076615">
        <ele>608.45000000000005</ele>
      </trkpt>
      <trkpt lat="43.553718533366919" lon="12.207009326666594">
        <ele>603.07000000000005</ele>
      </trkpt>
      <trkpt lat="43.553428687155247" lon="12.207200014963746">
        <ele>599.13999999999999</ele>
      </trkpt>
      <trkpt lat="43.553096763789654" lon="12.206933973357081">
        <ele>604.70000000000005</ele>
      </trkpt>
      <trkpt lat="43.552185064181685" lon="12.206783266738057">
        <ele>605.89999999999998</ele>
      </trkpt>
      <trkpt lat="43.551944755017757" lon="12.206636415794492">
        <ele>602.75</ele>
      </trkpt>
      <trkpt lat="43.551727328449488" lon="12.206550585106015">
        <ele>599.32000000000005</ele>
      </trkpt>
      <trkpt lat="43.55136489495635" lon="12.206389401108027">
        <ele>592.38</ele>
      </trkpt>
      <trkpt lat="43.551078820601106" lon="12.206304576247931">
        <ele>584.07000000000005</ele>
      </trkpt>
      <trkpt lat="43.550922414287925" lon="12.206258811056614">
        <ele>579.5</ele>
      </trkpt>
      <trkpt lat="43.55043794028461" lon="12.206628788262606">
        <ele>582.88</ele>
      </trkpt>
      <trkpt lat="43.550323527306318" lon="12.206762311980128">
        <ele>586.58000000000004</ele>
      </trkpt>
      <trkpt lat="43.550262423232198" lon="12.206906313076615">
        <ele>590.36000000000001</ele>
      </trkpt>
      <trkpt lat="43.550109872594476" lon="12.20717235468328">
        <ele>597.70000000000005</ele>
      </trkpt>
      <trkpt lat="43.54972455650568" lon="12.207065569236875">
        <ele>601.97000000000003</ele>
      </trkpt>
      <trkpt lat="43.549480475485325" lon="12.20691679045558">
        <ele>605.74000000000001</ele>
      </trkpt>
      <trkpt lat="43.549499502405524" lon="12.206707913428545">
        <ele>602.25</ele>
      </trkpt>
      <trkpt lat="43.549465220421553" lon="12.206374146044254">
        <ele>598.03999999999996</ele>
      </trkpt>
      <trkpt lat="43.549308814108372" lon="12.20593074336648">
        <ele>596.37</ele>
      </trkpt>
      <trkpt lat="43.549007400870323" lon="12.205418609082699">
        <ele>593.10000000000002</ele>
      </trkpt>
      <trkpt lat="43.548965491354465" lon="12.205146783962846">
        <ele>586.99000000000001</ele>
      </trkpt>
      <trkpt lat="43.548889132216573" lon="12.204731963574886">
        <ele>577.91999999999996</ele>
      </trkpt>
      <trkpt lat="43.54875560849905" lon="12.204504981637001">
        <ele>574.59000000000003</ele>
      </trkpt>
      <trkpt lat="43.548606829717755" lon="12.204422000795603">
        <ele>574.94000000000005</ele>
      </trkpt>
      <trkpt lat="43.548416141420603" lon="12.20432854257524">
        <ele>567.73000000000002</ele>
      </trkpt>
      <trkpt lat="43.548248251900077" lon="12.204139698296785">
        <ele>559.25999999999999</ele>
      </trkpt>
      <trkpt lat="43.548114812001586" lon="12.203931827098131">
        <ele>552.17999999999995</ele>
      </trkpt>
      <trkpt lat="43.548061335459352" lon="12.203776342794299">
        <ele>548.17999999999995</ele>
      </trkpt>
      <trkpt lat="43.547985060140491" lon="12.203653380274773">
        <ele>544.98000000000002</ele>
      </trkpt>
      <trkpt lat="43.547790516167879" lon="12.203610381111503">
        <ele>541.51999999999998</ele>
      </trkpt>
      <trkpt lat="43.547416683286428" lon="12.20351692289114">
        <ele>533.98000000000002</ele>
      </trkpt>
      <trkpt lat="43.547157263383269" lon="12.20353695563972">
        <ele>530.05999999999995</ele>
      </trkpt>
      <trkpt lat="43.546890299767256" lon="12.203523628413677">
        <ele>527.00999999999999</ele>
      </trkpt>
      <trkpt lat="43.546607997268438" lon="12.203403431922197">
        <ele>523.14999999999998</ele>
      </trkpt>
      <trkpt lat="43.546363832429051" lon="12.203048709779978">
        <ele>518.67999999999995</ele>
      </trkpt>
      <trkpt lat="43.546173060312867" lon="12.202751152217388">
        <ele>515.01999999999998</ele>
      </trkpt>
      <trkpt lat="43.545844992622733" lon="12.202710164710879">
        <ele>511.25</ele>
      </trkpt>
      <trkpt lat="43.545703925192356" lon="12.202667249366641">
        <ele>508.19</ele>
      </trkpt>
      <trkpt lat="43.545513153076172" lon="12.202672027051449">
        <ele>502.79000000000002</ele>
      </trkpt>
      <trkpt lat="43.545330008491874" lon="12.202618634328246">
        <ele>497.23000000000002</ele>
      </trkpt>
      <trkpt lat="43.54541776701808" lon="12.202159892767668">
        <ele>494.70999999999998</ele>
      </trkpt>
      <trkpt lat="43.545268988236785" lon="12.202083617448807">
        <ele>489.76999999999998</ele>
      </trkpt>
      <trkpt lat="43.54512020945549" lon="12.202101722359657">
        <ele>486.19</ele>
      </trkpt>
      <trkpt lat="43.54484561830759" lon="12.202268606051803">
        <ele>480.88999999999999</ele>
      </trkpt>
      <trkpt lat="43.544692983850837" lon="12.202238095924258">
        <ele>476.50999999999999</ele>
      </trkpt>
      <trkpt lat="43.544574715197086" lon="12.202199958264828">
        <ele>473.00999999999999</ele>
      </trkpt>
      <trkpt lat="43.54442979209125" lon="12.20215511508286">
        <ele>468.80000000000001</ele>
      </trkpt>
      <trkpt lat="43.54417422786355" lon="12.202122677117586">
        <ele>463.5</ele>
      </trkpt>
      <trkpt lat="43.543865187093616" lon="12.20253087580204">
        <ele>460.75999999999999</ele>
      </trkpt>
      <trkpt lat="43.543823277577758" lon="12.202920885756612">
        <ele>462.57999999999998</ele>
      </trkpt>
      <trkpt lat="43.543628649786115" lon="12.20324233174324">
        <ele>461.24000000000001</ele>
      </trkpt>
      <trkpt lat="43.543479954823852" lon="12.203108808025718">
        <ele>458.04000000000002</ele>
      </trkpt>
      <trkpt lat="43.543293038383126" lon="12.202720642089844">
        <ele>452.50999999999999</ele>
      </trkpt>
      <trkpt lat="43.543010735884309" lon="12.203017193824053">
        <ele>450.25999999999999</ele>
      </trkpt>
      <trkpt lat="43.542644530534744" lon="12.203745832666755">
        <ele>450.18000000000001</ele>
      </trkpt>
      <trkpt lat="43.542186710983515" lon="12.203838368877769">
        <ele>445.25</ele>
      </trkpt>
      <trkpt lat="43.542133318260312" lon="12.203304274007678">
        <ele>439.56</ele>
      </trkpt>
      <trkpt lat="43.542034160345793" lon="12.202912336215377">
        <ele>436.06999999999999</ele>
      </trkpt>
      <trkpt lat="43.541896780952811" lon="12.202575718984008">
        <ele>433.33999999999997</ele>
      </trkpt>
      <trkpt lat="43.541332259774208" lon="12.202224768698215">
        <ele>427.56</ele>
      </trkpt>
      <trkpt lat="43.541236873716116" lon="12.202157964929938">
        <ele>426.27999999999997</ele>
      </trkpt>
      <trkpt lat="43.541072839871049" lon="12.201840374618769">
        <ele>421.01999999999998</ele>
      </trkpt>
      <trkpt lat="43.540771510452032" lon="12.201590510085225">
        <ele>414.35000000000002</ele>
      </trkpt>
      <trkpt lat="43.54037856683135" lon="12.201669719070196">
        <ele>407.44999999999999</ele>
      </trkpt>
      <trkpt lat="43.540058126673102" lon="12.201965348795056">
        <ele>404.10000000000002</ele>
      </trkpt>
      <trkpt lat="43.539829216897488" lon="12.202049251645803">
        <ele>399.58999999999997</ele>
      </trkpt>
      <trkpt lat="43.539737686514854" lon="12.202049251645803">
        <ele>397.38</ele>
      </trkpt>
      <trkpt lat="43.539604162797332" lon="12.202024441212416">
        <ele>393.98000000000002</ele>
      </trkpt>
      <trkpt lat="43.539253212511539" lon="12.201806092634797">
        <ele>385.07999999999998</ele>
      </trkpt>
      <trkpt lat="43.539005275815725" lon="12.201764099299908">
        <ele>380.56999999999999</ele>
      </trkpt>
      <trkpt lat="43.538818359375" lon="12.202144637703896">
        <ele>377.06999999999999</ele>
      </trkpt>
      <trkpt lat="43.538745855912566" lon="12.202264750376344">
        <ele>375.06999999999999</ele>
      </trkpt>
      <trkpt lat="43.53852080181241" lon="12.202299116179347">
        <ele>370.26999999999998</ele>
      </trkpt>
      <trkpt lat="43.538452154025435" lon="12.202277155593038">
        <ele>369.13</ele>
      </trkpt>
      <trkpt lat="43.538131713867188" lon="12.20209501683712">
        <ele>364.25999999999999</ele>
      </trkpt>
      <trkpt lat="43.53776928037405" lon="12.201890917494893">
        <ele>359.04000000000002</ele>
      </trkpt>
      <trkpt lat="43.537273406982422" lon="12.201766949146986">
        <ele>353.39999999999998</ele>
      </trkpt>
      <trkpt lat="43.536846181377769" lon="12.201726883649826">
        <ele>348.17000000000002</ele>
      </trkpt>
      <trkpt lat="43.536468492820859" lon="12.201378783211112">
        <ele>343.33999999999997</ele>
      </trkpt>
      <trkpt lat="43.536212928593159" lon="12.201112741604447">
        <ele>339.60000000000002</ele>
      </trkpt>
      <trkpt lat="43.53599164634943" lon="12.201370233669877">
        <ele>337.25</ele>
      </trkpt>
      <trkpt lat="43.535858122631907" lon="12.201740294694901">
        <ele>336.91000000000003</ele>
      </trkpt>
      <trkpt lat="43.535472890362144" lon="12.201270069926977">
        <ele>332.02999999999997</ele>
      </trkpt>
      <trkpt lat="43.534866292029619" lon="12.200819039717317">
        <ele>327.51999999999998</ele>
      </trkpt>
      <trkpt lat="43.534599328413606" lon="12.20063304528594">
        <ele>326.42000000000002</ele>
      </trkpt>
      <trkpt lat="43.53446957655251" lon="12.200076067820191">
        <ele>324.89999999999998</ele>
      </trkpt>
      <trkpt lat="43.534423811361194" lon="12.199516324326396">
        <ele>323.61000000000001</ele>
      </trkpt>
      <trkpt lat="43.534282660111785" lon="12.198951719328761">
        <ele>322.02999999999997</ele>
      </trkpt>
      <trkpt lat="43.532478371635079" lon="12.201898545026779">
        <ele>325.48000000000002</ele>
      </trkpt>
      <trkpt lat="43.531456030905247" lon="12.204134920611978">
        <ele>331.10000000000002</ele>
      </trkpt>
      <trkpt lat="43.531028721481562" lon="12.204071972519159">
        <ele>330.69999999999999</ele>
      </trkpt>
      <trkpt lat="43.52947236970067" lon="12.20600794069469">
        <ele>333.5</ele>
      </trkpt>
      <trkpt lat="43.528213491663337" lon="12.206979738548398">
        <ele>331.89999999999998</ele>
      </trkpt>
      <trkpt lat="43.527732873335481" lon="12.206933051347733">
        <ele>330.20999999999998</ele>
      </trkpt>
      <trkpt lat="43.525680564343929" lon="12.207753220573068">
        <ele>326.58999999999997</ele>
      </trkpt>
      <trkpt lat="43.524456052109599" lon="12.208457970991731">
        <ele>326.56999999999999</ele>
      </trkpt>
      <trkpt lat="43.524139383807778" lon="12.208723090589046">
        <ele>326.51999999999998</ele>
      </trkpt>
      <trkpt lat="43.523891447111964" lon="12.209697738289833">
        <ele>326.80000000000001</ele>
      </trkpt>
      <trkpt lat="43.522819485515356" lon="12.211692798882723">
        <ele>325.47000000000003</ele>
      </trkpt>
      <trkpt lat="43.520813025534153" lon="12.213361719623208">
        <ele>322.80000000000001</ele>
      </trkpt>
      <trkpt lat="43.520889300853014" lon="12.213798500597477">
        <ele>322.29000000000002</ele>
      </trkpt>
      <trkpt lat="43.520587887614965" lon="12.214871384203434">
        <ele>322.88999999999999</ele>
      </trkpt>
      <trkpt lat="43.520324695855379" lon="12.215030640363693">
        <ele>323.92000000000002</ele>
      </trkpt>
      <trkpt lat="43.519550291821361" lon="12.216015849262476">
        <ele>327.30000000000001</ele>
      </trkpt>
      <trkpt lat="43.51980971172452" lon="12.21640108153224">
        <ele>328.05000000000001</ele>
      </trkpt>
      <trkpt lat="43.520240793004632" lon="12.217005752027035">
        <ele>329.31</ele>
      </trkpt>
      <trkpt lat="43.520507840439677" lon="12.217164002358913">
        <ele>329.74000000000001</ele>
      </trkpt>
      <trkpt lat="43.520629880949855" lon="12.217224100604653">
        <ele>329.89999999999998</ele>
      </trkpt>
      <trkpt lat="43.520927438512444" lon="12.217203145846725">
        <ele>329.91000000000003</ele>
      </trkpt>
      <trkpt lat="43.522335011512041" lon="12.217463487759233">
        <ele>332.44999999999999</ele>
      </trkpt>
      <trkpt lat="43.522560149431229" lon="12.21865464001894">
        <ele>334.02999999999997</ele>
      </trkpt>
      <trkpt lat="43.522014655172825" lon="12.220224402844906">
        <ele>334.67000000000002</ele>
      </trkpt>
      <trkpt lat="43.518627192825079" lon="12.225899705663323">
        <ele>335.5</ele>
      </trkpt>
      <trkpt lat="43.517650617286563" lon="12.226740829646587">
        <ele>331.56999999999999</ele>
      </trkpt>
      <trkpt lat="43.515087096020579" lon="12.228954322636127">
        <ele>325.06999999999999</ele>
      </trkpt>
      <trkpt lat="43.512695319950581" lon="12.231213580816984">
        <ele>321.54000000000002</ele>
      </trkpt>
      <trkpt lat="43.511539455503225" lon="12.232451420277357">
        <ele>325.19</ele>
      </trkpt>
      <trkpt lat="43.510673521086574" lon="12.233555819839239">
        <ele>328.82999999999998</ele>
      </trkpt>
      <trkpt lat="43.509723683819175" lon="12.234567599371076">
        <ele>329.76999999999998</ele>
      </trkpt>
      <trkpt lat="43.509384132921696" lon="12.234681090340018">
        <ele>329.36000000000001</ele>
      </trkpt>
      <trkpt lat="43.507343307137489" lon="12.236207937821746">
        <ele>326.51999999999998</ele>
      </trkpt>
      <trkpt lat="43.506843578070402" lon="12.236332911998034">
        <ele>325.60000000000002</ele>
      </trkpt>
      <trkpt lat="43.506652805954218" lon="12.237442005425692">
        <ele>327.19</ele>
      </trkpt>
      <trkpt lat="43.504623379558325" lon="12.240210548043251">
        <ele>328.19</ele>
      </trkpt>
      <trkpt lat="43.504280056804419" lon="12.240483295172453">
        <ele>327.10000000000002</ele>
      </trkpt>
      <trkpt lat="43.503860458731651" lon="12.241039266809821">
        <ele>326.68000000000001</ele>
      </trkpt>
      <trkpt lat="43.503700280562043" lon="12.241519968956709">
        <ele>327.07999999999998</ele>
      </trkpt>
      <trkpt lat="43.503635404631495" lon="12.241901429370046">
        <ele>327.69999999999999</ele>
      </trkpt>
      <trkpt lat="43.503028890118003" lon="12.243291819468141">
        <ele>329.95999999999998</ele>
      </trkpt>
      <trkpt lat="43.501937901601195" lon="12.244691848754883">
        <ele>329.20999999999998</ele>
      </trkpt>
      <trkpt lat="43.501297021284699" lon="12.244804417714477">
        <ele>325.36000000000001</ele>
      </trkpt>
      <trkpt lat="43.499424336478114" lon="12.242536945268512"/>
      <trkpt lat="43.497987007722259" lon="12.240407774224877"/>
      <trkpt lat="43.496998865157366" lon="12.238512625917792"/>
      <trkpt lat="43.496675491333008" lon="12.237529931589961"/>
      <trkpt lat="43.492219839245081" lon="12.238582782447338"/>
      <trkpt lat="43.491465216502547" lon="12.239237911999226"/>
      <trkpt lat="43.491411320865154" lon="12.239331537857652"/>
      <trkpt lat="43.491393383592367" lon="12.239331537857652"/>
      <trkpt lat="43.490728614851832" lon="12.240197220817208"/>
      <trkpt lat="43.489902159199119" lon="12.24078219383955"/>
      <trkpt lat="43.488985933363438" lon="12.241577636450529"/>
      <trkpt lat="43.488498693332076" lon="12.242365870624781">
        <ele>307.17000000000002</ele>
      </trkpt>
      <trkpt lat="43.486537914723158" lon="12.242889404296875">
        <ele>303.11000000000001</ele>
      </trkpt>
      <trkpt lat="43.485244754701853" lon="12.243026699870825">
        <ele>300.02999999999997</ele>
      </trkpt>
      <trkpt lat="43.485131431370974" lon="12.243219902738929"/>
      <trkpt lat="43.485131431370974" lon="12.243570853024721"/>
      <trkpt lat="43.485616492107511" lon="12.244085585698485"/>
      <trkpt lat="43.485041577368975" lon="12.245840420946479"/>
      <trkpt lat="43.484861953184009" lon="12.245723409578204"/>
      <trkpt lat="43.484754161909223" lon="12.245887191966176"/>
      <trkpt lat="43.483334770426154" lon="12.246167985722423"/>
      <trkpt lat="43.482234561815858" lon="12.246168069541454"/>
      <trkpt lat="43.481875229626894" lon="12.249326705932617"/>
      <trkpt lat="43.481593513861299" lon="12.251392342150211"/>
      <trkpt lat="43.48139226436615" lon="12.251875558868051"/>
      <trkpt lat="43.480801172554493" lon="12.252489700913429"/>
      <trkpt lat="43.481480358168483" lon="12.252268586307764"/>
      <trkpt lat="43.482177229598165" lon="12.25377188064158"/>
    </trkseg>
  </trk>

  <trk>
    <name>Variante pioggia</name>
    <extensions>
      <gpxx:TrackExtension xmlns:gpxx="http://www.garmin.com/xmlschemas/GpxExtensions/v3">
        <gpxx:DisplayColor>Red</gpxx:DisplayColor>
      </gpxx:TrackExtension>
    </extensions>
    <trkseg>
      <trkpt lat="43.573573166504502" lon="12.147069582715631"/>
      <trkpt lat="43.573034210130572" lon="12.148245312273502"/>
      <trkpt lat="43.572751237079501" lon="12.149263126775622"/>
      <trkpt lat="43.572549065575004" lon="12.149666715413332"/>
      <trkpt lat="43.572064004838467" lon="12.150473892688751"/>
      <trkpt lat="43.571686735376716" lon="12.15093020349741"/>
      <trkpt lat="43.571201590821147" lon="12.1515092253685"/>
      <trkpt lat="43.570824321359396" lon="12.152246246114373"/>
      <trkpt lat="43.570554843172431" lon="12.152737593278289"/>
      <trkpt lat="43.57029877603054" lon="12.153018387034535"/>
      <trkpt lat="43.570042792707682" lon="12.153088627383113"/>
      <trkpt lat="43.569719418883324" lon="12.153299180790782"/>
      <trkpt lat="43.569786809384823" lon="12.156422697007656"/>
      <trkpt lat="43.569824192672968" lon="12.15706542134285">
        <ele>343.88999999999999</ele>
      </trkpt>
      <trkpt lat="43.569984454661608" lon="12.157581327483058">
        <ele>343.63</ele>
      </trkpt>
      <trkpt lat="43.570972429588437" lon="12.159106247127056">
        <ele>347.5</ele>
      </trkpt>
      <trkpt lat="43.572616539895535" lon="12.161208176985383">
        <ele>348.98000000000002</ele>
      </trkpt>
      <trkpt lat="43.572780573740602" lon="12.16162970289588">
        <ele>351.45999999999998</ele>
      </trkpt>
      <trkpt lat="43.57288358733058" lon="12.162345852702856">
        <ele>354.61000000000001</ele>
      </trkpt>
      <trkpt lat="43.573017111048102" lon="12.163041131570935">
        <ele>358.30000000000001</ele>
      </trkpt>
      <trkpt lat="43.573246020823717" lon="12.16334531083703">
        <ele>360.44999999999999</ele>
      </trkpt>
      <trkpt lat="43.574066190049052" lon="12.164065400138497">
        <ele>363.73000000000002</ele>
      </trkpt>
      <trkpt lat="43.574913013726473" lon="12.164660431444645">
        <ele>367.54000000000002</ele>
      </trkpt>
      <trkpt lat="43.575305957347155" lon="12.164955139160156">
        <ele>371.19</ele>
      </trkpt>
      <trkpt lat="43.575855223461986" lon="12.165204081684351">
        <ele>374.06</ele>
      </trkpt>
      <trkpt lat="43.576049767434597" lon="12.165463417768478">
        <ele>377.95999999999998</ele>
      </trkpt>
      <trkpt lat="43.576339697465301" lon="12.16599365696311">
        <ele>388.12</ele>
      </trkpt>
      <trkpt lat="43.576442711055279" lon="12.166211167350411">
        <ele>392.12</ele>
      </trkpt>
      <trkpt lat="43.576686875894666" lon="12.166563039645553">
        <ele>398.55000000000001</ele>
      </trkpt>
      <trkpt lat="43.576984433457255" lon="12.166929244995117">
        <ele>404.04000000000002</ele>
      </trkpt>
      <trkpt lat="43.577136984094977" lon="12.167386058717966">
        <ele>409.31</ele>
      </trkpt>
      <trkpt lat="43.577209487557411" lon="12.167748408392072">
        <ele>413.18000000000001</ele>
      </trkpt>
      <trkpt lat="43.577331528067589" lon="12.168074632063508">
        <ele>415.63999999999999</ele>
      </trkpt>
      <trkpt lat="43.577327756211162" lon="12.168436981737614">
        <ele>420.24000000000001</ele>
      </trkpt>
      <trkpt lat="43.577278135344386" lon="12.168769827112556">
        <ele>424.24000000000001</ele>
      </trkpt>
      <trkpt lat="43.577213259413838" lon="12.169193280860782">
        <ele>429.36000000000001</ele>
      </trkpt>
      <trkpt lat="43.577163722366095" lon="12.16959192417562">
        <ele>433.48000000000002</ele>
      </trkpt>
      <trkpt lat="43.577514672651887" lon="12.169193280860782">
        <ele>424.60000000000002</ele>
      </trkpt>
      <trkpt lat="43.577720616012812" lon="12.168761277571321">
        <ele>417.55000000000001</ele>
      </trkpt>
      <trkpt lat="43.577880878001451" lon="12.168356934562325">
        <ele>414.76999999999998</ele>
      </trkpt>
      <trkpt lat="43.578342469409108" lon="12.168388366699219">
        <ele>419.76999999999998</ele>
      </trkpt>
      <trkpt lat="43.578582778573036" lon="12.168533289805055">
        <ele>424.58999999999997</ele>
      </trkpt>
      <trkpt lat="43.578739184886217" lon="12.168771754950285">
        <ele>430.33999999999997</ele>
      </trkpt>
      <trkpt lat="43.578838342800736" lon="12.168969148769975">
        <ele>435.14999999999998</ele>
      </trkpt>
      <trkpt lat="43.578948983922601" lon="12.169183725491166">
        <ele>440.80000000000001</ele>
      </trkpt>
      <trkpt lat="43.579101534560323" lon="12.169626206159592">
        <ele>451.50999999999999</ele>
      </trkpt>
      <trkpt lat="43.579193148761988" lon="12.169976234436035">
        <ele>454.77999999999997</ele>
      </trkpt>
      <trkpt lat="43.579227430745959" lon="12.170301452279091">
        <ele>457.95999999999998</ele>
      </trkpt>
      <trkpt lat="43.579196920618415" lon="12.170592304319143">
        <ele>462.75</ele>
      </trkpt>
      <trkpt lat="43.579139672219753" lon="12.170901261270046">
        <ele>469.35000000000002</ele>
      </trkpt>
      <trkpt lat="43.579105390235782" lon="12.171246511861682">
        <ele>476.04000000000002</ele>
      </trkpt>
      <trkpt lat="43.579090135172009" lon="12.171537363901734">
        <ele>480.94</ele>
      </trkpt>
      <trkpt lat="43.579105390235782" lon="12.172290813177824">
        <ele>488.19</ele>
      </trkpt>
      <trkpt lat="43.579078651964664" lon="12.172619802877307">
        <ele>491.79000000000002</ele>
      </trkpt>
      <trkpt lat="43.578971866518259" lon="12.172997491434216">
        <ele>495.43000000000001</ele>
      </trkpt>
      <trkpt lat="43.578887963667512" lon="12.173249199986458">
        <ele>496.88999999999999</ele>
      </trkpt>
      <trkpt lat="43.578979494050145" lon="12.17378044500947">
        <ele>503.24000000000001</ele>
      </trkpt>
      <trkpt lat="43.579155011102557" lon="12.174374554306269">
        <ele>507.06</ele>
      </trkpt>
      <trkpt lat="43.579135900363326" lon="12.174710249528289">
        <ele>517.63999999999999</ele>
      </trkpt>
      <trkpt lat="43.579368581995368" lon="12.17502691783011">
        <ele>519.28999999999996</ele>
      </trkpt>
      <trkpt lat="43.579605119302869" lon="12.17512515373528">
        <ele>514.02999999999997</ele>
      </trkpt>
      <trkpt lat="43.579692877829075" lon="12.175252893939614">
        <ele>515.58000000000004</ele>
      </trkpt>
      <trkpt lat="43.579738643020391" lon="12.175565706565976">
        <ele>524.53999999999996</ele>
      </trkpt>
      <trkpt lat="43.579826317727566" lon="12.175906179472804">
        <ele>530.46000000000004</ele>
      </trkpt>
      <trkpt lat="43.579914076253772" lon="12.176266685128212">
        <ele>536.65999999999997</ele>
      </trkpt>
      <trkpt lat="43.580036200582981" lon="12.176621407270432">
        <ele>540.41999999999996</ele>
      </trkpt>
      <trkpt lat="43.580284137278795" lon="12.177214594557881">
        <ele>544.03999999999996</ele>
      </trkpt>
      <trkpt lat="43.580463426187634" lon="12.17733571305871">
        <ele>540.82000000000005</ele>
      </trkpt>
      <trkpt lat="43.580718990415335" lon="12.177268071100116">
        <ele>531.48000000000002</ele>
      </trkpt>
      <trkpt lat="43.581108078360558" lon="12.177548445761204">
        <ele>527.37</ele>
      </trkpt>
      <trkpt lat="43.581394236534834" lon="12.177445432171226">
        <ele>523.05999999999995</ele>
      </trkpt>
      <trkpt lat="43.581623062491417" lon="12.177229849621654">
        <ele>517.13</ele>
      </trkpt>
      <trkpt lat="43.581821462139487" lon="12.17688174918294">
        <ele>509.79000000000002</ele>
      </trkpt>
      <trkpt lat="43.58191299252212" lon="12.176523171365261">
        <ele>506.29000000000002</ele>
      </trkpt>
      <trkpt lat="43.581996895372868" lon="12.17627146281302">
        <ele>507.91000000000003</ele>
      </trkpt>
      <trkpt lat="43.582122791558504" lon="12.176058730110526">
        <ele>511.42000000000002</ele>
      </trkpt>
      <trkpt lat="43.582149529829621" lon="12.175923362374306">
        <ele>511.70999999999998</ele>
      </trkpt>
      <trkpt lat="43.582023633643985" lon="12.175575261935592">
        <ele>505.13</ele>
      </trkpt>
      <trkpt lat="43.581897737458348" lon="12.175438888370991">
        <ele>500.58999999999997</ele>
      </trkpt>
      <trkpt lat="43.581996895372868" lon="12.174993557855487">
        <ele>505.25</ele>
      </trkpt>
      <trkpt lat="43.582122791558504" lon="12.174974447116256">
        <ele>509.64999999999998</ele>
      </trkpt>
      <trkpt lat="43.58229068107903" lon="12.175013506785035">
        <ele>515.45000000000005</ele>
      </trkpt>
      <trkpt lat="43.582447087392211" lon="12.175129931420088">
        <ele>521.00999999999999</ele>
      </trkpt>
      <trkpt lat="43.582599638029933" lon="12.175361607223749">
        <ele>526.83000000000004</ele>
      </trkpt>
      <trkpt lat="43.582813292741776" lon="12.175517091527581">
        <ele>534.88</ele>
      </trkpt>
      <trkpt lat="43.583023091778159" lon="12.175671570003033">
        <ele>543.55999999999995</ele>
      </trkpt>
      <trkpt lat="43.583332048729062" lon="12.175729740411043">
        <ele>554.38999999999999</ele>
      </trkpt>
      <trkpt lat="43.583545703440905" lon="12.175729740411043">
        <ele>557.55999999999995</ele>
      </trkpt>
      <trkpt lat="43.583797411993146" lon="12.175671570003033">
        <ele>560.84000000000003</ele>
      </trkpt>
      <trkpt lat="43.584106452763081" lon="12.175671570003033">
        <ele>562.35000000000002</ele>
      </trkpt>
      <trkpt lat="43.583911908790469" lon="12.176853166893125">
        <ele>571.22000000000003</ele>
      </trkpt>
      <trkpt lat="43.583374042063951" lon="12.178111039102077">
        <ele>571.84000000000003</ele>
      </trkpt>
      <trkpt lat="43.583305394276977" lon="12.178692827001214">
        <ele>578.03999999999996</ele>
      </trkpt>
      <trkpt lat="43.583305394276977" lon="12.178944619372487">
        <ele>584.00999999999999</ele>
      </trkpt>
      <trkpt lat="43.583374042063951" lon="12.179176295176148">
        <ele>589.24000000000001</ele>
      </trkpt>
      <trkpt lat="43.583431206643581" lon="12.179350890219212">
        <ele>592.83000000000004</ele>
      </trkpt>
      <trkpt lat="43.583656344562769" lon="12.180028902366757">
        <ele>606.58000000000004</ele>
      </trkpt>
      <trkpt lat="43.583755502477288" lon="12.18026066198945">
        <ele>611.12</ele>
      </trkpt>
      <trkpt lat="43.584556560963392" lon="12.180589651688933">
        <ele>606.99000000000001</ele>
      </trkpt>
      <trkpt lat="43.584827380254865" lon="12.181616770103574">
        <ele>626.57000000000005</ele>
      </trkpt>
      <trkpt lat="43.584896111860871" lon="12.181964870542288">
        <ele>634.00999999999999</ele>
      </trkpt>
      <trkpt lat="43.585022008046508" lon="12.18223568983376">
        <ele>637.35000000000002</ele>
      </trkpt>
      <trkpt lat="43.585105910897255" lon="12.182429311797023">
        <ele>640</ele>
      </trkpt>
      <trkpt lat="43.585414867848158" lon="12.182642966508865">
        <ele>634.84000000000003</ele>
      </trkpt>
      <trkpt lat="43.585556019097567" lon="12.182913785800338">
        <ele>638.39999999999998</ele>
      </trkpt>
      <trkpt lat="43.585723908618093" lon="12.183339083567262">
        <ele>646.01999999999998</ele>
      </trkpt>
      <trkpt lat="43.585853576660156" lon="12.183615686371922">
        <ele>649.34000000000003</ele>
      </trkpt>
      <trkpt lat="43.58602138236165" lon="12.183844596147537">
        <ele>652.64999999999998</ele>
      </trkpt>
      <trkpt lat="43.586338050663471" lon="12.183729177340865">
        <ele>641.27999999999997</ele>
      </trkpt>
      <trkpt lat="43.586406698450446" lon="12.183403037488461">
        <ele>632.22000000000003</ele>
      </trkpt>
      <trkpt lat="43.586425809189677" lon="12.183004394173622">
        <ele>622.5</ele>
      </trkpt>
      <trkpt lat="43.586418181657791" lon="12.182617150247097">
        <ele>614.82000000000005</ele>
      </trkpt>
      <trkpt lat="43.586349450051785" lon="12.182232839986682">
        <ele>608.96000000000004</ele>
      </trkpt>
      <trkpt lat="43.586250292137265" lon="12.181817013770342">
        <ele>600.42999999999995</ele>
      </trkpt>
      <trkpt lat="43.586174016818404" lon="12.181351650506258">
        <ele>592.88</ele>
      </trkpt>
      <trkpt lat="43.586204526945949" lon="12.180916797369719">
        <ele>588.92999999999995</ele>
      </trkpt>
      <trkpt lat="43.586391443386674" lon="12.17962933704257">
        <ele>586.88</ele>
      </trkpt>
      <trkpt lat="43.586666118353605" lon="12.179286936298013">
        <ele>597.96000000000004</ele>
      </trkpt>
      <trkpt lat="43.586959820240736" lon="12.179355584084988">
        <ele>609.23000000000002</ele>
      </trkpt>
      <trkpt lat="43.587146736681461" lon="12.179590193554759">
        <ele>618.79999999999995</ele>
      </trkpt>
      <trkpt lat="43.587379418313503" lon="12.179882051423192">
        <ele>634.13999999999999</ele>
      </trkpt>
      <trkpt lat="43.587497686967254" lon="12.179967882111669">
        <ele>640.88</ele>
      </trkpt>
      <trkpt lat="43.587806727737188" lon="12.180048935115337">
        <ele>645.79999999999995</ele>
      </trkpt>
      <trkpt lat="43.588424641638994" lon="12.180043235421181">
        <ele>644.09000000000003</ele>
      </trkpt>
      <trkpt lat="43.588542910292745" lon="12.180425617843866">
        <ele>654.51999999999998</ele>
      </trkpt>
      <trkpt lat="43.588607786223292" lon="12.180754691362381">
        <ele>663.82000000000005</ele>
      </trkpt>
      <trkpt lat="43.588668806478381" lon="12.180989300832152">
        <ele>668.13999999999999</ele>
      </trkpt>
      <trkpt lat="43.588909115642309" lon="12.181464219465852">
        <ele>668.20000000000005</ele>
      </trkpt>
      <trkpt lat="43.58892822638154" lon="12.181889517232776">
        <ele>673.52999999999997</ele>
      </trkpt>
      <trkpt lat="43.588794702664018" lon="12.182311043143272">
        <ele>676.52999999999997</ele>
      </trkpt>
      <trkpt lat="43.588535282760859" lon="12.182819405570626">
        <ele>679.63</ele>
      </trkpt>
      <trkpt lat="43.588424641638994" lon="12.183091146871448">
        <ele>683.70000000000005</ele>
      </trkpt>
      <trkpt lat="43.588298829272389" lon="12.18344209715724">
        <ele>687.21000000000004</ele>
      </trkpt>
      <trkpt lat="43.588424641638994" lon="12.184028662741184">
        <ele>697.67999999999995</ele>
      </trkpt>
      <trkpt lat="43.588527655228972" lon="12.184236533939838">
        <ele>708.49000000000001</ele>
      </trkpt>
      <trkpt lat="43.58859253115952" lon="12.184324292466044">
        <ele>713.98000000000002</ele>
      </trkpt>
      <trkpt lat="43.588760420680046" lon="12.184460666030645">
        <ele>725.07000000000005</ele>
      </trkpt>
      <trkpt lat="43.589099887758493" lon="12.184755289927125">
        <ele>734.61000000000001</ele>
      </trkpt>
      <trkpt lat="43.589233411476016" lon="12.184897447004914">
        <ele>738.91999999999996</ele>
      </trkpt>
      <trkpt lat="43.58956147916615" lon="12.18480683863163">
        <ele>726.46000000000004</ele>
      </trkpt>
      <trkpt lat="43.589992560446262" lon="12.1851244289428">
        <ele>731.78999999999996</ele>
      </trkpt>
      <trkpt lat="43.590156594291329" lon="12.185285529121757">
        <ele>735.29999999999995</ele>
      </trkpt>
      <trkpt lat="43.590271007269621" lon="12.185530699789524">
        <ele>743.38999999999999</ele>
      </trkpt>
      <trkpt lat="43.59041215851903" lon="12.185758603736758">
        <ele>749.22000000000003</ele>
      </trkpt>
      <trkpt lat="43.590843239799142" lon="12.186038978397846">
        <ele>746.42999999999995</ele>
      </trkpt>
    </trkseg>
  </trk>

</gpx>
